<?xml version="1.0" encoding="UTF-8" standalone="no" ?>
<gpx xmlns="http://www.topografix.com/GPX/1/1" xmlns:xsi="http://www.w3.org/2001/XMLSchema-instance" xsi:schemaLocation="http://www.topografix.com/GPX/1/1 http://www.topografix.com/GPX/1/1/gpx.xsd" version="1.1" creator="VisuGPX - https://www.visugpx.com">
  <metadata>
    <name>Foncine-le-Haut - Source de la Saine - Le Bulay</name>
    <desc><![CDATA[Randonnée effectuée le 31 aout 2020]]></desc>
  </metadata>
  <trk>
    <name><![CDATA[31 août 2020 à 09:29:36]]></name>
    <trkseg>
      <trkpt lat="46.659" lon="6.0728">
        <ele>689</ele>
        <time>2020-08-31T07:29:36Z</time>
      </trkpt>
      <trkpt lat="46.65892" lon="6.07289">
        <ele>864</ele>
        <time>2020-08-31T07:29:56Z</time>
      </trkpt>
      <trkpt lat="46.65887" lon="6.07292">
        <ele>864</ele>
        <time>2020-08-31T07:30:12Z</time>
      </trkpt>
      <trkpt lat="46.65883" lon="6.07301">
        <ele>864</ele>
        <time>2020-08-31T07:30:32Z</time>
      </trkpt>
      <trkpt lat="46.65887" lon="6.07307">
        <ele>864</ele>
        <time>2020-08-31T07:32:48Z</time>
      </trkpt>
      <trkpt lat="46.65895" lon="6.07308">
        <ele>864</ele>
        <time>2020-08-31T07:33:00Z</time>
      </trkpt>
      <trkpt lat="46.65912" lon="6.07334">
        <ele>865</ele>
        <time>2020-08-31T07:33:28Z</time>
      </trkpt>
      <trkpt lat="46.65933" lon="6.07337">
        <ele>867</ele>
        <time>2020-08-31T07:34:01Z</time>
      </trkpt>
      <trkpt lat="46.65939" lon="6.07347">
        <ele>867</ele>
        <time>2020-08-31T07:34:06Z</time>
      </trkpt>
      <trkpt lat="46.65944" lon="6.07353">
        <ele>868</ele>
        <time>2020-08-31T07:34:14Z</time>
      </trkpt>
      <trkpt lat="46.65949" lon="6.07375">
        <ele>868</ele>
        <time>2020-08-31T07:34:29Z</time>
      </trkpt>
      <trkpt lat="46.65964" lon="6.07401">
        <ele>867</ele>
        <time>2020-08-31T07:34:46Z</time>
      </trkpt>
      <trkpt lat="46.65973" lon="6.0741">
        <ele>867</ele>
        <time>2020-08-31T07:34:58Z</time>
      </trkpt>
      <trkpt lat="46.65975" lon="6.07414">
        <ele>867</ele>
        <time>2020-08-31T07:35:02Z</time>
      </trkpt>
      <trkpt lat="46.65976" lon="6.07425">
        <ele>867</ele>
        <time>2020-08-31T07:35:10Z</time>
      </trkpt>
      <trkpt lat="46.65978" lon="6.0743">
        <ele>867</ele>
        <time>2020-08-31T07:35:13Z</time>
      </trkpt>
      <trkpt lat="46.65975" lon="6.0741">
        <ele>868</ele>
        <time>2020-08-31T07:35:33Z</time>
      </trkpt>
      <trkpt lat="46.65983" lon="6.0739">
        <ele>870</ele>
        <time>2020-08-31T07:35:46Z</time>
      </trkpt>
      <trkpt lat="46.65982" lon="6.07382">
        <ele>870</ele>
        <time>2020-08-31T07:35:51Z</time>
      </trkpt>
      <trkpt lat="46.65978" lon="6.07364">
        <ele>871</ele>
        <time>2020-08-31T07:36:03Z</time>
      </trkpt>
      <trkpt lat="46.6597" lon="6.07348">
        <ele>872</ele>
        <time>2020-08-31T07:36:16Z</time>
      </trkpt>
      <trkpt lat="46.65975" lon="6.07338">
        <ele>873</ele>
        <time>2020-08-31T07:36:30Z</time>
      </trkpt>
      <trkpt lat="46.65983" lon="6.07323">
        <ele>873</ele>
        <time>2020-08-31T07:36:41Z</time>
      </trkpt>
      <trkpt lat="46.65987" lon="6.07311">
        <ele>873</ele>
        <time>2020-08-31T07:36:50Z</time>
      </trkpt>
      <trkpt lat="46.65987" lon="6.07275">
        <ele>872</ele>
        <time>2020-08-31T07:37:12Z</time>
      </trkpt>
      <trkpt lat="46.65988" lon="6.0727">
        <ele>871</ele>
        <time>2020-08-31T07:37:16Z</time>
      </trkpt>
      <trkpt lat="46.65989" lon="6.07264">
        <ele>871</ele>
        <time>2020-08-31T07:37:20Z</time>
      </trkpt>
      <trkpt lat="46.65993" lon="6.07262">
        <ele>871</ele>
        <time>2020-08-31T07:37:26Z</time>
      </trkpt>
      <trkpt lat="46.66003" lon="6.07264">
        <ele>871</ele>
        <time>2020-08-31T07:37:35Z</time>
      </trkpt>
      <trkpt lat="46.6601" lon="6.07269">
        <ele>870</ele>
        <time>2020-08-31T07:37:43Z</time>
      </trkpt>
      <trkpt lat="46.66019" lon="6.07273">
        <ele>870</ele>
        <time>2020-08-31T07:37:51Z</time>
      </trkpt>
      <trkpt lat="46.66023" lon="6.07273">
        <ele>870</ele>
        <time>2020-08-31T07:37:54Z</time>
      </trkpt>
      <trkpt lat="46.66028" lon="6.07275">
        <ele>869</ele>
        <time>2020-08-31T07:37:59Z</time>
      </trkpt>
      <trkpt lat="46.6604" lon="6.07275">
        <ele>869</ele>
        <time>2020-08-31T07:38:08Z</time>
      </trkpt>
      <trkpt lat="46.66044" lon="6.07278">
        <ele>869</ele>
        <time>2020-08-31T07:38:11Z</time>
      </trkpt>
      <trkpt lat="46.66049" lon="6.07277">
        <ele>869</ele>
        <time>2020-08-31T07:38:17Z</time>
      </trkpt>
      <trkpt lat="46.66059" lon="6.07278">
        <ele>869</ele>
        <time>2020-08-31T07:38:25Z</time>
      </trkpt>
      <trkpt lat="46.66062" lon="6.07277">
        <ele>869</ele>
        <time>2020-08-31T07:38:29Z</time>
      </trkpt>
      <trkpt lat="46.66079" lon="6.07276">
        <ele>869</ele>
        <time>2020-08-31T07:38:43Z</time>
      </trkpt>
      <trkpt lat="46.66083" lon="6.07275">
        <ele>869</ele>
        <time>2020-08-31T07:38:46Z</time>
      </trkpt>
      <trkpt lat="46.66087" lon="6.07274">
        <ele>869</ele>
        <time>2020-08-31T07:38:50Z</time>
      </trkpt>
      <trkpt lat="46.66104" lon="6.07277">
        <ele>869</ele>
        <time>2020-08-31T07:39:04Z</time>
      </trkpt>
      <trkpt lat="46.66112" lon="6.07278">
        <ele>869</ele>
        <time>2020-08-31T07:39:11Z</time>
      </trkpt>
      <trkpt lat="46.66125" lon="6.07274">
        <ele>870</ele>
        <time>2020-08-31T07:39:25Z</time>
      </trkpt>
      <trkpt lat="46.66136" lon="6.0728">
        <ele>870</ele>
        <time>2020-08-31T07:39:35Z</time>
      </trkpt>
      <trkpt lat="46.66161" lon="6.07285">
        <ele>870</ele>
        <time>2020-08-31T07:39:55Z</time>
      </trkpt>
      <trkpt lat="46.66176" lon="6.0729">
        <ele>870</ele>
        <time>2020-08-31T07:40:11Z</time>
      </trkpt>
      <trkpt lat="46.66181" lon="6.07291">
        <ele>870</ele>
        <time>2020-08-31T07:40:15Z</time>
      </trkpt>
      <trkpt lat="46.66194" lon="6.0729">
        <ele>871</ele>
        <time>2020-08-31T07:40:26Z</time>
      </trkpt>
      <trkpt lat="46.66204" lon="6.07293">
        <ele>871</ele>
        <time>2020-08-31T07:40:33Z</time>
      </trkpt>
      <trkpt lat="46.66214" lon="6.07292">
        <ele>871</ele>
        <time>2020-08-31T07:40:43Z</time>
      </trkpt>
      <trkpt lat="46.66218" lon="6.07294">
        <ele>871</ele>
        <time>2020-08-31T07:40:46Z</time>
      </trkpt>
      <trkpt lat="46.66224" lon="6.07295">
        <ele>871</ele>
        <time>2020-08-31T07:40:51Z</time>
      </trkpt>
      <trkpt lat="46.6624" lon="6.07307">
        <ele>872</ele>
        <time>2020-08-31T07:41:08Z</time>
      </trkpt>
      <trkpt lat="46.66242" lon="6.07312">
        <ele>872</ele>
        <time>2020-08-31T07:41:11Z</time>
      </trkpt>
      <trkpt lat="46.6625" lon="6.07317">
        <ele>872</ele>
        <time>2020-08-31T07:41:18Z</time>
      </trkpt>
      <trkpt lat="46.66257" lon="6.0733">
        <ele>872</ele>
        <time>2020-08-31T07:41:28Z</time>
      </trkpt>
      <trkpt lat="46.66263" lon="6.07332">
        <ele>872</ele>
        <time>2020-08-31T07:41:34Z</time>
      </trkpt>
      <trkpt lat="46.66275" lon="6.07349">
        <ele>872</ele>
        <time>2020-08-31T07:41:49Z</time>
      </trkpt>
      <trkpt lat="46.66277" lon="6.07354">
        <ele>872</ele>
        <time>2020-08-31T07:41:52Z</time>
      </trkpt>
      <trkpt lat="46.66306" lon="6.07379">
        <ele>873</ele>
        <time>2020-08-31T07:42:23Z</time>
      </trkpt>
      <trkpt lat="46.66324" lon="6.07392">
        <ele>875</ele>
        <time>2020-08-31T07:42:39Z</time>
      </trkpt>
      <trkpt lat="46.66328" lon="6.07397">
        <ele>875</ele>
        <time>2020-08-31T07:42:45Z</time>
      </trkpt>
      <trkpt lat="46.66333" lon="6.07398">
        <ele>875</ele>
        <time>2020-08-31T07:42:48Z</time>
      </trkpt>
      <trkpt lat="46.6634" lon="6.07404">
        <ele>876</ele>
        <time>2020-08-31T07:42:56Z</time>
      </trkpt>
      <trkpt lat="46.66348" lon="6.07405">
        <ele>876</ele>
        <time>2020-08-31T07:43:04Z</time>
      </trkpt>
      <trkpt lat="46.66353" lon="6.07401">
        <ele>876</ele>
        <time>2020-08-31T07:43:08Z</time>
      </trkpt>
      <trkpt lat="46.66354" lon="6.07396">
        <ele>876</ele>
        <time>2020-08-31T07:43:11Z</time>
      </trkpt>
      <trkpt lat="46.6636" lon="6.07387">
        <ele>877</ele>
        <time>2020-08-31T07:43:18Z</time>
      </trkpt>
      <trkpt lat="46.66364" lon="6.07385">
        <ele>877</ele>
        <time>2020-08-31T07:43:22Z</time>
      </trkpt>
      <trkpt lat="46.66381" lon="6.07345">
        <ele>878</ele>
        <time>2020-08-31T07:43:49Z</time>
      </trkpt>
      <trkpt lat="46.66383" lon="6.07341">
        <ele>878</ele>
        <time>2020-08-31T07:43:54Z</time>
      </trkpt>
      <trkpt lat="46.66385" lon="6.07336">
        <ele>878</ele>
        <time>2020-08-31T07:43:57Z</time>
      </trkpt>
      <trkpt lat="46.66387" lon="6.07328">
        <ele>878</ele>
        <time>2020-08-31T07:44:02Z</time>
      </trkpt>
      <trkpt lat="46.6639" lon="6.0732">
        <ele>879</ele>
        <time>2020-08-31T07:44:07Z</time>
      </trkpt>
      <trkpt lat="46.66397" lon="6.07306">
        <ele>880</ele>
        <time>2020-08-31T07:44:19Z</time>
      </trkpt>
      <trkpt lat="46.66401" lon="6.07302">
        <ele>881</ele>
        <time>2020-08-31T07:44:25Z</time>
      </trkpt>
      <trkpt lat="46.66424" lon="6.07254">
        <ele>884</ele>
        <time>2020-08-31T07:44:57Z</time>
      </trkpt>
      <trkpt lat="46.66427" lon="6.07247">
        <ele>885</ele>
        <time>2020-08-31T07:45:02Z</time>
      </trkpt>
      <trkpt lat="46.66428" lon="6.0723">
        <ele>885</ele>
        <time>2020-08-31T07:45:15Z</time>
      </trkpt>
      <trkpt lat="46.66433" lon="6.07225">
        <ele>885</ele>
        <time>2020-08-31T07:45:21Z</time>
      </trkpt>
      <trkpt lat="46.6644" lon="6.07228">
        <ele>886</ele>
        <time>2020-08-31T07:45:30Z</time>
      </trkpt>
      <trkpt lat="46.66443" lon="6.07235">
        <ele>886</ele>
        <time>2020-08-31T07:45:36Z</time>
      </trkpt>
      <trkpt lat="46.66451" lon="6.0724">
        <ele>887</ele>
        <time>2020-08-31T07:45:46Z</time>
      </trkpt>
      <trkpt lat="46.66456" lon="6.07244">
        <ele>888</ele>
        <time>2020-08-31T07:45:51Z</time>
      </trkpt>
      <trkpt lat="46.66465" lon="6.07258">
        <ele>888</ele>
        <time>2020-08-31T07:46:02Z</time>
      </trkpt>
      <trkpt lat="46.6647" lon="6.07263">
        <ele>888</ele>
        <time>2020-08-31T07:46:07Z</time>
      </trkpt>
      <trkpt lat="46.66476" lon="6.07276">
        <ele>887</ele>
        <time>2020-08-31T07:46:17Z</time>
      </trkpt>
      <trkpt lat="46.66483" lon="6.07282">
        <ele>886</ele>
        <time>2020-08-31T07:46:25Z</time>
      </trkpt>
      <trkpt lat="46.66496" lon="6.07288">
        <ele>886</ele>
        <time>2020-08-31T07:46:38Z</time>
      </trkpt>
      <trkpt lat="46.66503" lon="6.07287">
        <ele>886</ele>
        <time>2020-08-31T07:46:43Z</time>
      </trkpt>
      <trkpt lat="46.6651" lon="6.07287">
        <ele>886</ele>
        <time>2020-08-31T07:46:49Z</time>
      </trkpt>
      <trkpt lat="46.66528" lon="6.07292">
        <ele>888</ele>
        <time>2020-08-31T07:47:07Z</time>
      </trkpt>
      <trkpt lat="46.66534" lon="6.07297">
        <ele>889</ele>
        <time>2020-08-31T07:47:12Z</time>
      </trkpt>
      <trkpt lat="46.66549" lon="6.07304">
        <ele>890</ele>
        <time>2020-08-31T07:47:28Z</time>
      </trkpt>
      <trkpt lat="46.66554" lon="6.07307">
        <ele>890</ele>
        <time>2020-08-31T07:47:34Z</time>
      </trkpt>
      <trkpt lat="46.66561" lon="6.0731">
        <ele>890</ele>
        <time>2020-08-31T07:47:41Z</time>
      </trkpt>
      <trkpt lat="46.66565" lon="6.07316">
        <ele>890</ele>
        <time>2020-08-31T07:47:55Z</time>
      </trkpt>
      <trkpt lat="46.66572" lon="6.07318">
        <ele>891</ele>
        <time>2020-08-31T07:48:01Z</time>
      </trkpt>
      <trkpt lat="46.66577" lon="6.07322">
        <ele>891</ele>
        <time>2020-08-31T07:48:06Z</time>
      </trkpt>
      <trkpt lat="46.66581" lon="6.07326">
        <ele>891</ele>
        <time>2020-08-31T07:48:12Z</time>
      </trkpt>
      <trkpt lat="46.66585" lon="6.07333">
        <ele>891</ele>
        <time>2020-08-31T07:48:18Z</time>
      </trkpt>
      <trkpt lat="46.6659" lon="6.07345">
        <ele>891</ele>
        <time>2020-08-31T07:48:29Z</time>
      </trkpt>
      <trkpt lat="46.66594" lon="6.07352">
        <ele>891</ele>
        <time>2020-08-31T07:48:35Z</time>
      </trkpt>
      <trkpt lat="46.666" lon="6.07355">
        <ele>892</ele>
        <time>2020-08-31T07:48:41Z</time>
      </trkpt>
      <trkpt lat="46.66629" lon="6.07357">
        <ele>898</ele>
        <time>2020-08-31T07:49:16Z</time>
      </trkpt>
      <trkpt lat="46.66659" lon="6.07367">
        <ele>902</ele>
        <time>2020-08-31T07:49:48Z</time>
      </trkpt>
      <trkpt lat="46.66667" lon="6.07374">
        <ele>903</ele>
        <time>2020-08-31T07:49:59Z</time>
      </trkpt>
      <trkpt lat="46.66672" lon="6.07378">
        <ele>904</ele>
        <time>2020-08-31T07:50:06Z</time>
      </trkpt>
      <trkpt lat="46.66682" lon="6.07381">
        <ele>906</ele>
        <time>2020-08-31T07:50:17Z</time>
      </trkpt>
      <trkpt lat="46.6669" lon="6.0738">
        <ele>906</ele>
        <time>2020-08-31T07:50:29Z</time>
      </trkpt>
      <trkpt lat="46.66696" lon="6.07385">
        <ele>906</ele>
        <time>2020-08-31T07:50:35Z</time>
      </trkpt>
      <trkpt lat="46.66714" lon="6.07422">
        <ele>901</ele>
        <time>2020-08-31T07:51:08Z</time>
      </trkpt>
      <trkpt lat="46.66725" lon="6.0744">
        <ele>901</ele>
        <time>2020-08-31T07:51:31Z</time>
      </trkpt>
      <trkpt lat="46.66731" lon="6.07447">
        <ele>900</ele>
        <time>2020-08-31T07:51:39Z</time>
      </trkpt>
      <trkpt lat="46.66735" lon="6.07457">
        <ele>900</ele>
        <time>2020-08-31T07:51:47Z</time>
      </trkpt>
      <trkpt lat="46.66749" lon="6.07473">
        <ele>899</ele>
        <time>2020-08-31T07:52:03Z</time>
      </trkpt>
      <trkpt lat="46.6677" lon="6.07518">
        <ele>900</ele>
        <time>2020-08-31T07:52:39Z</time>
      </trkpt>
      <trkpt lat="46.6678" lon="6.07523">
        <ele>899</ele>
        <time>2020-08-31T07:52:51Z</time>
      </trkpt>
      <trkpt lat="46.66788" lon="6.07534">
        <ele>900</ele>
        <time>2020-08-31T07:53:04Z</time>
      </trkpt>
      <trkpt lat="46.66815" lon="6.07569">
        <ele>902</ele>
        <time>2020-08-31T07:53:35Z</time>
      </trkpt>
      <trkpt lat="46.66821" lon="6.07574">
        <ele>902</ele>
        <time>2020-08-31T07:53:40Z</time>
      </trkpt>
      <trkpt lat="46.6683" lon="6.07575">
        <ele>902</ele>
        <time>2020-08-31T07:53:47Z</time>
      </trkpt>
      <trkpt lat="46.66839" lon="6.07584">
        <ele>903</ele>
        <time>2020-08-31T07:54:02Z</time>
      </trkpt>
      <trkpt lat="46.66841" lon="6.07595">
        <ele>904</ele>
        <time>2020-08-31T07:54:09Z</time>
      </trkpt>
      <trkpt lat="46.66848" lon="6.07602">
        <ele>905</ele>
        <time>2020-08-31T07:54:16Z</time>
      </trkpt>
      <trkpt lat="46.66852" lon="6.07609">
        <ele>906</ele>
        <time>2020-08-31T07:54:23Z</time>
      </trkpt>
      <trkpt lat="46.66856" lon="6.0762">
        <ele>906</ele>
        <time>2020-08-31T07:54:36Z</time>
      </trkpt>
      <trkpt lat="46.66862" lon="6.07625">
        <ele>907</ele>
        <time>2020-08-31T07:54:44Z</time>
      </trkpt>
      <trkpt lat="46.66868" lon="6.07632">
        <ele>907</ele>
        <time>2020-08-31T07:54:50Z</time>
      </trkpt>
      <trkpt lat="46.66875" lon="6.07637">
        <ele>908</ele>
        <time>2020-08-31T07:54:56Z</time>
      </trkpt>
      <trkpt lat="46.66879" lon="6.07643">
        <ele>909</ele>
        <time>2020-08-31T07:55:04Z</time>
      </trkpt>
      <trkpt lat="46.66884" lon="6.07646">
        <ele>908</ele>
        <time>2020-08-31T07:55:09Z</time>
      </trkpt>
      <trkpt lat="46.66889" lon="6.07658">
        <ele>908</ele>
        <time>2020-08-31T07:55:23Z</time>
      </trkpt>
      <trkpt lat="46.66899" lon="6.07669">
        <ele>908</ele>
        <time>2020-08-31T07:55:38Z</time>
      </trkpt>
      <trkpt lat="46.66904" lon="6.07675">
        <ele>908</ele>
        <time>2020-08-31T07:55:50Z</time>
      </trkpt>
      <trkpt lat="46.6691" lon="6.07683">
        <ele>908</ele>
        <time>2020-08-31T07:56:02Z</time>
      </trkpt>
      <trkpt lat="46.66915" lon="6.07687">
        <ele>906</ele>
        <time>2020-08-31T07:58:17Z</time>
      </trkpt>
      <trkpt lat="46.66912" lon="6.0769">
        <ele>906</ele>
        <time>2020-08-31T07:58:33Z</time>
      </trkpt>
      <trkpt lat="46.66916" lon="6.07692">
        <ele>906</ele>
        <time>2020-08-31T07:58:48Z</time>
      </trkpt>
      <trkpt lat="46.66909" lon="6.07697">
        <ele>902</ele>
        <time>2020-08-31T07:59:31Z</time>
      </trkpt>
      <trkpt lat="46.66911" lon="6.07703">
        <ele>899</ele>
        <time>2020-08-31T07:59:49Z</time>
      </trkpt>
      <trkpt lat="46.66912" lon="6.07712">
        <ele>897</ele>
        <time>2020-08-31T08:00:02Z</time>
      </trkpt>
      <trkpt lat="46.66918" lon="6.07732">
        <ele>895</ele>
        <time>2020-08-31T08:00:16Z</time>
      </trkpt>
      <trkpt lat="46.66923" lon="6.07729">
        <ele>892</ele>
        <time>2020-08-31T08:00:32Z</time>
      </trkpt>
      <trkpt lat="46.66927" lon="6.07724">
        <ele>891</ele>
        <time>2020-08-31T08:00:36Z</time>
      </trkpt>
      <trkpt lat="46.66929" lon="6.07715">
        <ele>891</ele>
        <time>2020-08-31T08:00:43Z</time>
      </trkpt>
      <trkpt lat="46.66928" lon="6.07706">
        <ele>891</ele>
        <time>2020-08-31T08:00:52Z</time>
      </trkpt>
      <trkpt lat="46.66929" lon="6.07693">
        <ele>891</ele>
        <time>2020-08-31T08:01:00Z</time>
      </trkpt>
      <trkpt lat="46.66929" lon="6.07689">
        <ele>891</ele>
        <time>2020-08-31T08:01:03Z</time>
      </trkpt>
      <trkpt lat="46.6693" lon="6.07682">
        <ele>891</ele>
        <time>2020-08-31T08:01:08Z</time>
      </trkpt>
      <trkpt lat="46.66931" lon="6.07676">
        <ele>891</ele>
        <time>2020-08-31T08:01:11Z</time>
      </trkpt>
      <trkpt lat="46.66931" lon="6.0767">
        <ele>891</ele>
        <time>2020-08-31T08:01:15Z</time>
      </trkpt>
      <trkpt lat="46.66934" lon="6.07664">
        <ele>891</ele>
        <time>2020-08-31T08:01:23Z</time>
      </trkpt>
      <trkpt lat="46.66938" lon="6.07666">
        <ele>891</ele>
        <time>2020-08-31T08:01:26Z</time>
      </trkpt>
      <trkpt lat="46.66942" lon="6.07665">
        <ele>890</ele>
        <time>2020-08-31T08:01:29Z</time>
      </trkpt>
      <trkpt lat="46.66951" lon="6.07658">
        <ele>891</ele>
        <time>2020-08-31T08:02:13Z</time>
      </trkpt>
      <trkpt lat="46.66943" lon="6.07653">
        <ele>891</ele>
        <time>2020-08-31T08:02:23Z</time>
      </trkpt>
      <trkpt lat="46.66949" lon="6.07651">
        <ele>890</ele>
        <time>2020-08-31T08:03:13Z</time>
      </trkpt>
      <trkpt lat="46.66955" lon="6.07644">
        <ele>891</ele>
        <time>2020-08-31T08:03:55Z</time>
      </trkpt>
      <trkpt lat="46.66957" lon="6.07637">
        <ele>893</ele>
        <time>2020-08-31T08:04:19Z</time>
      </trkpt>
      <trkpt lat="46.66966" lon="6.07621">
        <ele>894</ele>
        <time>2020-08-31T08:04:37Z</time>
      </trkpt>
      <trkpt lat="46.66964" lon="6.07616">
        <ele>896</ele>
        <time>2020-08-31T08:04:49Z</time>
      </trkpt>
      <trkpt lat="46.66974" lon="6.07617">
        <ele>900</ele>
        <time>2020-08-31T08:05:14Z</time>
      </trkpt>
      <trkpt lat="46.66979" lon="6.07611">
        <ele>901</ele>
        <time>2020-08-31T08:05:24Z</time>
      </trkpt>
      <trkpt lat="46.66982" lon="6.07601">
        <ele>904</ele>
        <time>2020-08-31T08:05:40Z</time>
      </trkpt>
      <trkpt lat="46.66987" lon="6.07594">
        <ele>905</ele>
        <time>2020-08-31T08:05:50Z</time>
      </trkpt>
      <trkpt lat="46.66979" lon="6.07588">
        <ele>907</ele>
        <time>2020-08-31T08:06:06Z</time>
      </trkpt>
      <trkpt lat="46.66984" lon="6.07582">
        <ele>909</ele>
        <time>2020-08-31T08:07:19Z</time>
      </trkpt>
      <trkpt lat="46.66975" lon="6.07575">
        <ele>909</ele>
        <time>2020-08-31T08:07:49Z</time>
      </trkpt>
      <trkpt lat="46.66969" lon="6.07576">
        <ele>909</ele>
        <time>2020-08-31T08:08:07Z</time>
      </trkpt>
      <trkpt lat="46.66971" lon="6.07571">
        <ele>909</ele>
        <time>2020-08-31T08:09:07Z</time>
      </trkpt>
      <trkpt lat="46.66978" lon="6.07573">
        <ele>909</ele>
        <time>2020-08-31T08:10:14Z</time>
      </trkpt>
      <trkpt lat="46.66975" lon="6.0758">
        <ele>909</ele>
        <time>2020-08-31T08:10:26Z</time>
      </trkpt>
      <trkpt lat="46.66971" lon="6.07586">
        <ele>908</ele>
        <time>2020-08-31T08:11:03Z</time>
      </trkpt>
      <trkpt lat="46.66965" lon="6.07593">
        <ele>906</ele>
        <time>2020-08-31T08:11:15Z</time>
      </trkpt>
      <trkpt lat="46.66966" lon="6.07599">
        <ele>904</ele>
        <time>2020-08-31T08:11:21Z</time>
      </trkpt>
      <trkpt lat="46.66962" lon="6.07612">
        <ele>898</ele>
        <time>2020-08-31T08:11:51Z</time>
      </trkpt>
      <trkpt lat="46.66959" lon="6.07621">
        <ele>893</ele>
        <time>2020-08-31T08:12:31Z</time>
      </trkpt>
      <trkpt lat="46.66955" lon="6.07625">
        <ele>892</ele>
        <time>2020-08-31T08:12:36Z</time>
      </trkpt>
      <trkpt lat="46.66956" lon="6.07633">
        <ele>892</ele>
        <time>2020-08-31T08:12:48Z</time>
      </trkpt>
      <trkpt lat="46.66955" lon="6.07646">
        <ele>890</ele>
        <time>2020-08-31T08:13:03Z</time>
      </trkpt>
      <trkpt lat="46.66957" lon="6.07655">
        <ele>890</ele>
        <time>2020-08-31T08:13:44Z</time>
      </trkpt>
      <trkpt lat="46.6695" lon="6.07651">
        <ele>890</ele>
        <time>2020-08-31T08:14:14Z</time>
      </trkpt>
      <trkpt lat="46.66936" lon="6.07671">
        <ele>893</ele>
        <time>2020-08-31T08:14:41Z</time>
      </trkpt>
      <trkpt lat="46.66931" lon="6.07707">
        <ele>893</ele>
        <time>2020-08-31T08:15:09Z</time>
      </trkpt>
      <trkpt lat="46.66932" lon="6.07716">
        <ele>893</ele>
        <time>2020-08-31T08:15:14Z</time>
      </trkpt>
      <trkpt lat="46.66932" lon="6.07724">
        <ele>893</ele>
        <time>2020-08-31T08:15:20Z</time>
      </trkpt>
      <trkpt lat="46.6693" lon="6.07731">
        <ele>893</ele>
        <time>2020-08-31T08:15:28Z</time>
      </trkpt>
      <trkpt lat="46.66925" lon="6.07719">
        <ele>897</ele>
        <time>2020-08-31T08:15:54Z</time>
      </trkpt>
      <trkpt lat="46.66921" lon="6.07715">
        <ele>899</ele>
        <time>2020-08-31T08:16:02Z</time>
      </trkpt>
      <trkpt lat="46.66923" lon="6.07706">
        <ele>901</ele>
        <time>2020-08-31T08:16:14Z</time>
      </trkpt>
      <trkpt lat="46.66924" lon="6.07694">
        <ele>903</ele>
        <time>2020-08-31T08:16:26Z</time>
      </trkpt>
      <trkpt lat="46.66915" lon="6.0767">
        <ele>906</ele>
        <time>2020-08-31T08:16:51Z</time>
      </trkpt>
      <trkpt lat="46.66909" lon="6.07666">
        <ele>907</ele>
        <time>2020-08-31T08:16:56Z</time>
      </trkpt>
      <trkpt lat="46.66904" lon="6.07659">
        <ele>906</ele>
        <time>2020-08-31T08:17:00Z</time>
      </trkpt>
      <trkpt lat="46.66898" lon="6.07651">
        <ele>905</ele>
        <time>2020-08-31T08:17:10Z</time>
      </trkpt>
      <trkpt lat="46.66888" lon="6.07642">
        <ele>906</ele>
        <time>2020-08-31T08:17:23Z</time>
      </trkpt>
      <trkpt lat="46.66882" lon="6.07643">
        <ele>906</ele>
        <time>2020-08-31T08:17:42Z</time>
      </trkpt>
      <trkpt lat="46.66882" lon="6.07634">
        <ele>907</ele>
        <time>2020-08-31T08:18:24Z</time>
      </trkpt>
      <trkpt lat="46.66876" lon="6.07631">
        <ele>905</ele>
        <time>2020-08-31T08:19:00Z</time>
      </trkpt>
      <trkpt lat="46.66869" lon="6.07626">
        <ele>904</ele>
        <time>2020-08-31T08:19:12Z</time>
      </trkpt>
      <trkpt lat="46.66863" lon="6.07612">
        <ele>904</ele>
        <time>2020-08-31T08:19:25Z</time>
      </trkpt>
      <trkpt lat="46.66853" lon="6.07599">
        <ele>903</ele>
        <time>2020-08-31T08:19:39Z</time>
      </trkpt>
      <trkpt lat="46.66841" lon="6.07589">
        <ele>901</ele>
        <time>2020-08-31T08:19:53Z</time>
      </trkpt>
      <trkpt lat="46.66836" lon="6.0758">
        <ele>901</ele>
        <time>2020-08-31T08:20:01Z</time>
      </trkpt>
      <trkpt lat="46.66834" lon="6.07573">
        <ele>901</ele>
        <time>2020-08-31T08:20:15Z</time>
      </trkpt>
      <trkpt lat="46.66825" lon="6.07568">
        <ele>901</ele>
        <time>2020-08-31T08:20:33Z</time>
      </trkpt>
      <trkpt lat="46.66825" lon="6.0756">
        <ele>904</ele>
        <time>2020-08-31T08:20:50Z</time>
      </trkpt>
      <trkpt lat="46.66829" lon="6.07552">
        <ele>906</ele>
        <time>2020-08-31T08:21:02Z</time>
      </trkpt>
      <trkpt lat="46.66828" lon="6.07541">
        <ele>909</ele>
        <time>2020-08-31T08:21:20Z</time>
      </trkpt>
      <trkpt lat="46.66824" lon="6.07533">
        <ele>910</ele>
        <time>2020-08-31T08:21:32Z</time>
      </trkpt>
      <trkpt lat="46.66823" lon="6.07509">
        <ele>913</ele>
        <time>2020-08-31T08:21:53Z</time>
      </trkpt>
      <trkpt lat="46.66814" lon="6.07496">
        <ele>916</ele>
        <time>2020-08-31T08:22:18Z</time>
      </trkpt>
      <trkpt lat="46.66809" lon="6.07484">
        <ele>918</ele>
        <time>2020-08-31T08:22:31Z</time>
      </trkpt>
      <trkpt lat="46.66804" lon="6.07479">
        <ele>918</ele>
        <time>2020-08-31T08:22:35Z</time>
      </trkpt>
      <trkpt lat="46.66801" lon="6.07472">
        <ele>920</ele>
        <time>2020-08-31T08:22:44Z</time>
      </trkpt>
      <trkpt lat="46.668" lon="6.07464">
        <ele>921</ele>
        <time>2020-08-31T08:22:56Z</time>
      </trkpt>
      <trkpt lat="46.66805" lon="6.07458">
        <ele>925</ele>
        <time>2020-08-31T08:23:26Z</time>
      </trkpt>
      <trkpt lat="46.66807" lon="6.07446">
        <ele>928</ele>
        <time>2020-08-31T08:23:46Z</time>
      </trkpt>
      <trkpt lat="46.66805" lon="6.07436">
        <ele>932</ele>
        <time>2020-08-31T08:24:16Z</time>
      </trkpt>
      <trkpt lat="46.66799" lon="6.07426">
        <ele>934</ele>
        <time>2020-08-31T08:24:34Z</time>
      </trkpt>
      <trkpt lat="46.66798" lon="6.07411">
        <ele>937</ele>
        <time>2020-08-31T08:24:52Z</time>
      </trkpt>
      <trkpt lat="46.66796" lon="6.07397">
        <ele>939</ele>
        <time>2020-08-31T08:25:04Z</time>
      </trkpt>
      <trkpt lat="46.6679" lon="6.07391">
        <ele>941</ele>
        <time>2020-08-31T08:25:18Z</time>
      </trkpt>
      <trkpt lat="46.66786" lon="6.07379">
        <ele>942</ele>
        <time>2020-08-31T08:25:30Z</time>
      </trkpt>
      <trkpt lat="46.66781" lon="6.07372">
        <ele>942</ele>
        <time>2020-08-31T08:25:36Z</time>
      </trkpt>
      <trkpt lat="46.66779" lon="6.07365">
        <ele>943</ele>
        <time>2020-08-31T08:25:44Z</time>
      </trkpt>
      <trkpt lat="46.66775" lon="6.07364">
        <ele>943</ele>
        <time>2020-08-31T08:25:50Z</time>
      </trkpt>
      <trkpt lat="46.66772" lon="6.07363">
        <ele>943</ele>
        <time>2020-08-31T08:25:56Z</time>
      </trkpt>
      <trkpt lat="46.66768" lon="6.07364">
        <ele>943</ele>
        <time>2020-08-31T08:26:14Z</time>
      </trkpt>
      <trkpt lat="46.66771" lon="6.07359">
        <ele>941</ele>
        <time>2020-08-31T08:29:39Z</time>
      </trkpt>
      <trkpt lat="46.66776" lon="6.07359">
        <ele>942</ele>
        <time>2020-08-31T08:30:11Z</time>
      </trkpt>
      <trkpt lat="46.66775" lon="6.07354">
        <ele>943</ele>
        <time>2020-08-31T08:31:22Z</time>
      </trkpt>
      <trkpt lat="46.66771" lon="6.07355">
        <ele>943</ele>
        <time>2020-08-31T08:31:26Z</time>
      </trkpt>
      <trkpt lat="46.66769" lon="6.07347">
        <ele>943</ele>
        <time>2020-08-31T08:32:24Z</time>
      </trkpt>
      <trkpt lat="46.66768" lon="6.07336">
        <ele>944</ele>
        <time>2020-08-31T08:32:32Z</time>
      </trkpt>
      <trkpt lat="46.66765" lon="6.07327">
        <ele>945</ele>
        <time>2020-08-31T08:32:40Z</time>
      </trkpt>
      <trkpt lat="46.66764" lon="6.07318">
        <ele>945</ele>
        <time>2020-08-31T08:32:48Z</time>
      </trkpt>
      <trkpt lat="46.66759" lon="6.07313">
        <ele>946</ele>
        <time>2020-08-31T08:32:54Z</time>
      </trkpt>
      <trkpt lat="46.66754" lon="6.07301">
        <ele>947</ele>
        <time>2020-08-31T08:33:03Z</time>
      </trkpt>
      <trkpt lat="46.66749" lon="6.07275">
        <ele>949</ele>
        <time>2020-08-31T08:33:30Z</time>
      </trkpt>
      <trkpt lat="46.66749" lon="6.07269">
        <ele>949</ele>
        <time>2020-08-31T08:33:36Z</time>
      </trkpt>
      <trkpt lat="46.6674" lon="6.07254">
        <ele>949</ele>
        <time>2020-08-31T08:33:55Z</time>
      </trkpt>
      <trkpt lat="46.66737" lon="6.0724">
        <ele>950</ele>
        <time>2020-08-31T08:34:08Z</time>
      </trkpt>
      <trkpt lat="46.66715" lon="6.07197">
        <ele>948</ele>
        <time>2020-08-31T08:34:44Z</time>
      </trkpt>
      <trkpt lat="46.66701" lon="6.07156">
        <ele>949</ele>
        <time>2020-08-31T08:35:17Z</time>
      </trkpt>
      <trkpt lat="46.66686" lon="6.07111">
        <ele>950</ele>
        <time>2020-08-31T08:35:52Z</time>
      </trkpt>
      <trkpt lat="46.66682" lon="6.07092">
        <ele>951</ele>
        <time>2020-08-31T08:36:05Z</time>
      </trkpt>
      <trkpt lat="46.66679" lon="6.07085">
        <ele>951</ele>
        <time>2020-08-31T08:36:10Z</time>
      </trkpt>
      <trkpt lat="46.66678" lon="6.07074">
        <ele>952</ele>
        <time>2020-08-31T08:36:18Z</time>
      </trkpt>
      <trkpt lat="46.66675" lon="6.07057">
        <ele>953</ele>
        <time>2020-08-31T08:36:31Z</time>
      </trkpt>
      <trkpt lat="46.66664" lon="6.07027">
        <ele>954</ele>
        <time>2020-08-31T08:36:53Z</time>
      </trkpt>
      <trkpt lat="46.66664" lon="6.07023">
        <ele>954</ele>
        <time>2020-08-31T08:36:56Z</time>
      </trkpt>
      <trkpt lat="46.66652" lon="6.07004">
        <ele>953</ele>
        <time>2020-08-31T08:37:13Z</time>
      </trkpt>
      <trkpt lat="46.66647" lon="6.07">
        <ele>954</ele>
        <time>2020-08-31T08:37:18Z</time>
      </trkpt>
      <trkpt lat="46.66643" lon="6.06994">
        <ele>953</ele>
        <time>2020-08-31T08:37:22Z</time>
      </trkpt>
      <trkpt lat="46.6664" lon="6.06989">
        <ele>953</ele>
        <time>2020-08-31T08:37:26Z</time>
      </trkpt>
      <trkpt lat="46.66638" lon="6.06978">
        <ele>953</ele>
        <time>2020-08-31T08:37:33Z</time>
      </trkpt>
      <trkpt lat="46.66635" lon="6.06974">
        <ele>953</ele>
        <time>2020-08-31T08:37:36Z</time>
      </trkpt>
      <trkpt lat="46.66632" lon="6.06961">
        <ele>953</ele>
        <time>2020-08-31T08:37:44Z</time>
      </trkpt>
      <trkpt lat="46.66627" lon="6.0695">
        <ele>952</ele>
        <time>2020-08-31T08:37:55Z</time>
      </trkpt>
      <trkpt lat="46.66626" lon="6.06944">
        <ele>952</ele>
        <time>2020-08-31T08:37:59Z</time>
      </trkpt>
      <trkpt lat="46.66624" lon="6.06938">
        <ele>952</ele>
        <time>2020-08-31T08:38:03Z</time>
      </trkpt>
      <trkpt lat="46.66615" lon="6.06917">
        <ele>952</ele>
        <time>2020-08-31T08:38:18Z</time>
      </trkpt>
      <trkpt lat="46.66613" lon="6.06907">
        <ele>952</ele>
        <time>2020-08-31T08:38:24Z</time>
      </trkpt>
      <trkpt lat="46.66614" lon="6.06901">
        <ele>951</ele>
        <time>2020-08-31T08:38:28Z</time>
      </trkpt>
      <trkpt lat="46.6661" lon="6.06891">
        <ele>951</ele>
        <time>2020-08-31T08:38:36Z</time>
      </trkpt>
      <trkpt lat="46.66609" lon="6.06885">
        <ele>951</ele>
        <time>2020-08-31T08:38:39Z</time>
      </trkpt>
      <trkpt lat="46.66607" lon="6.06877">
        <ele>951</ele>
        <time>2020-08-31T08:38:45Z</time>
      </trkpt>
      <trkpt lat="46.66604" lon="6.06873">
        <ele>950</ele>
        <time>2020-08-31T08:38:48Z</time>
      </trkpt>
      <trkpt lat="46.66599" lon="6.06858">
        <ele>950</ele>
        <time>2020-08-31T08:39:00Z</time>
      </trkpt>
      <trkpt lat="46.66592" lon="6.06844">
        <ele>950</ele>
        <time>2020-08-31T08:39:12Z</time>
      </trkpt>
      <trkpt lat="46.66591" lon="6.06834">
        <ele>950</ele>
        <time>2020-08-31T08:39:19Z</time>
      </trkpt>
      <trkpt lat="46.66588" lon="6.06826">
        <ele>950</ele>
        <time>2020-08-31T08:39:26Z</time>
      </trkpt>
      <trkpt lat="46.66584" lon="6.06821">
        <ele>950</ele>
        <time>2020-08-31T08:39:29Z</time>
      </trkpt>
      <trkpt lat="46.66581" lon="6.06818">
        <ele>950</ele>
        <time>2020-08-31T08:39:32Z</time>
      </trkpt>
      <trkpt lat="46.66576" lon="6.06805">
        <ele>950</ele>
        <time>2020-08-31T08:39:43Z</time>
      </trkpt>
      <trkpt lat="46.66574" lon="6.06791">
        <ele>950</ele>
        <time>2020-08-31T08:39:52Z</time>
      </trkpt>
      <trkpt lat="46.66567" lon="6.0677">
        <ele>952</ele>
        <time>2020-08-31T08:40:17Z</time>
      </trkpt>
      <trkpt lat="46.66568" lon="6.0676">
        <ele>952</ele>
        <time>2020-08-31T08:40:22Z</time>
      </trkpt>
      <trkpt lat="46.66564" lon="6.06752">
        <ele>952</ele>
        <time>2020-08-31T08:40:30Z</time>
      </trkpt>
      <trkpt lat="46.66564" lon="6.06742">
        <ele>953</ele>
        <time>2020-08-31T08:40:36Z</time>
      </trkpt>
      <trkpt lat="46.66562" lon="6.06738">
        <ele>953</ele>
        <time>2020-08-31T08:40:40Z</time>
      </trkpt>
      <trkpt lat="46.66557" lon="6.06723">
        <ele>952</ele>
        <time>2020-08-31T08:40:52Z</time>
      </trkpt>
      <trkpt lat="46.66556" lon="6.06717">
        <ele>952</ele>
        <time>2020-08-31T08:40:56Z</time>
      </trkpt>
      <trkpt lat="46.66553" lon="6.06711">
        <ele>952</ele>
        <time>2020-08-31T08:41:00Z</time>
      </trkpt>
      <trkpt lat="46.66551" lon="6.06693">
        <ele>951</ele>
        <time>2020-08-31T08:41:12Z</time>
      </trkpt>
      <trkpt lat="46.6655" lon="6.06688">
        <ele>951</ele>
        <time>2020-08-31T08:41:15Z</time>
      </trkpt>
      <trkpt lat="46.6655" lon="6.06683">
        <ele>950</ele>
        <time>2020-08-31T08:41:18Z</time>
      </trkpt>
      <trkpt lat="46.66544" lon="6.06661">
        <ele>948</ele>
        <time>2020-08-31T08:41:35Z</time>
      </trkpt>
      <trkpt lat="46.6654" lon="6.06655">
        <ele>948</ele>
        <time>2020-08-31T08:41:41Z</time>
      </trkpt>
      <trkpt lat="46.66539" lon="6.06649">
        <ele>947</ele>
        <time>2020-08-31T08:41:45Z</time>
      </trkpt>
      <trkpt lat="46.66533" lon="6.06621">
        <ele>947</ele>
        <time>2020-08-31T08:42:01Z</time>
      </trkpt>
      <trkpt lat="46.66535" lon="6.06612">
        <ele>947</ele>
        <time>2020-08-31T08:42:08Z</time>
      </trkpt>
      <trkpt lat="46.66536" lon="6.06598">
        <ele>947</ele>
        <time>2020-08-31T08:42:18Z</time>
      </trkpt>
      <trkpt lat="46.66535" lon="6.06593">
        <ele>947</ele>
        <time>2020-08-31T08:42:22Z</time>
      </trkpt>
      <trkpt lat="46.66536" lon="6.06586">
        <ele>947</ele>
        <time>2020-08-31T08:42:25Z</time>
      </trkpt>
      <trkpt lat="46.66532" lon="6.06581">
        <ele>948</ele>
        <time>2020-08-31T08:42:31Z</time>
      </trkpt>
      <trkpt lat="46.6653" lon="6.06576">
        <ele>948</ele>
        <time>2020-08-31T08:42:35Z</time>
      </trkpt>
      <trkpt lat="46.6653" lon="6.06556">
        <ele>949</ele>
        <time>2020-08-31T08:42:46Z</time>
      </trkpt>
      <trkpt lat="46.66526" lon="6.06539">
        <ele>950</ele>
        <time>2020-08-31T08:42:59Z</time>
      </trkpt>
      <trkpt lat="46.66522" lon="6.06492">
        <ele>953</ele>
        <time>2020-08-31T08:43:31Z</time>
      </trkpt>
      <trkpt lat="46.6652" lon="6.06487">
        <ele>953</ele>
        <time>2020-08-31T08:43:34Z</time>
      </trkpt>
      <trkpt lat="46.66519" lon="6.0648">
        <ele>953</ele>
        <time>2020-08-31T08:43:37Z</time>
      </trkpt>
      <trkpt lat="46.66504" lon="6.06432">
        <ele>953</ele>
        <time>2020-08-31T08:44:10Z</time>
      </trkpt>
      <trkpt lat="46.66502" lon="6.06425">
        <ele>953</ele>
        <time>2020-08-31T08:44:16Z</time>
      </trkpt>
      <trkpt lat="46.66499" lon="6.06414">
        <ele>952</ele>
        <time>2020-08-31T08:44:23Z</time>
      </trkpt>
      <trkpt lat="46.66499" lon="6.06408">
        <ele>951</ele>
        <time>2020-08-31T08:44:27Z</time>
      </trkpt>
      <trkpt lat="46.66493" lon="6.06392">
        <ele>951</ele>
        <time>2020-08-31T08:44:39Z</time>
      </trkpt>
      <trkpt lat="46.66489" lon="6.06385">
        <ele>951</ele>
        <time>2020-08-31T08:44:53Z</time>
      </trkpt>
      <trkpt lat="46.66488" lon="6.0638">
        <ele>951</ele>
        <time>2020-08-31T08:45:05Z</time>
      </trkpt>
      <trkpt lat="46.6649" lon="6.06372">
        <ele>951</ele>
        <time>2020-08-31T08:45:29Z</time>
      </trkpt>
      <trkpt lat="46.66488" lon="6.06356">
        <ele>952</ele>
        <time>2020-08-31T08:45:47Z</time>
      </trkpt>
      <trkpt lat="46.66486" lon="6.06349">
        <ele>952</ele>
        <time>2020-08-31T08:45:55Z</time>
      </trkpt>
      <trkpt lat="46.66477" lon="6.06338">
        <ele>952</ele>
        <time>2020-08-31T08:46:13Z</time>
      </trkpt>
      <trkpt lat="46.66473" lon="6.06324">
        <ele>951</ele>
        <time>2020-08-31T08:46:23Z</time>
      </trkpt>
      <trkpt lat="46.66474" lon="6.06314">
        <ele>952</ele>
        <time>2020-08-31T08:46:31Z</time>
      </trkpt>
      <trkpt lat="46.66475" lon="6.06302">
        <ele>954</ele>
        <time>2020-08-31T08:47:03Z</time>
      </trkpt>
      <trkpt lat="46.66481" lon="6.06291">
        <ele>956</ele>
        <time>2020-08-31T08:47:17Z</time>
      </trkpt>
      <trkpt lat="46.66491" lon="6.06287">
        <ele>958</ele>
        <time>2020-08-31T08:47:35Z</time>
      </trkpt>
      <trkpt lat="46.66506" lon="6.0629">
        <ele>961</ele>
        <time>2020-08-31T08:48:00Z</time>
      </trkpt>
      <trkpt lat="46.66514" lon="6.06283">
        <ele>963</ele>
        <time>2020-08-31T08:48:45Z</time>
      </trkpt>
      <trkpt lat="46.66516" lon="6.06271">
        <ele>964</ele>
        <time>2020-08-31T08:49:03Z</time>
      </trkpt>
      <trkpt lat="46.66518" lon="6.06263">
        <ele>964</ele>
        <time>2020-08-31T08:49:09Z</time>
      </trkpt>
      <trkpt lat="46.6652" lon="6.06255">
        <ele>966</ele>
        <time>2020-08-31T08:49:19Z</time>
      </trkpt>
      <trkpt lat="46.66519" lon="6.06242">
        <ele>968</ele>
        <time>2020-08-31T08:49:31Z</time>
      </trkpt>
      <trkpt lat="46.66516" lon="6.06235">
        <ele>969</ele>
        <time>2020-08-31T08:49:40Z</time>
      </trkpt>
      <trkpt lat="46.66516" lon="6.06226">
        <ele>972</ele>
        <time>2020-08-31T08:49:58Z</time>
      </trkpt>
      <trkpt lat="46.66515" lon="6.06218">
        <ele>974</ele>
        <time>2020-08-31T08:50:10Z</time>
      </trkpt>
      <trkpt lat="46.66507" lon="6.06208">
        <ele>975</ele>
        <time>2020-08-31T08:50:22Z</time>
      </trkpt>
      <trkpt lat="46.66502" lon="6.06194">
        <ele>977</ele>
        <time>2020-08-31T08:50:37Z</time>
      </trkpt>
      <trkpt lat="46.66501" lon="6.06185">
        <ele>979</ele>
        <time>2020-08-31T08:50:52Z</time>
      </trkpt>
      <trkpt lat="46.66498" lon="6.06166">
        <ele>982</ele>
        <time>2020-08-31T08:51:13Z</time>
      </trkpt>
      <trkpt lat="46.66487" lon="6.06133">
        <ele>987</ele>
        <time>2020-08-31T08:51:48Z</time>
      </trkpt>
      <trkpt lat="46.66482" lon="6.06125">
        <ele>988</ele>
        <time>2020-08-31T08:52:00Z</time>
      </trkpt>
      <trkpt lat="46.66481" lon="6.06113">
        <ele>989</ele>
        <time>2020-08-31T08:52:12Z</time>
      </trkpt>
      <trkpt lat="46.66488" lon="6.06103">
        <ele>992</ele>
        <time>2020-08-31T08:52:32Z</time>
      </trkpt>
      <trkpt lat="46.6649" lon="6.06093">
        <ele>993</ele>
        <time>2020-08-31T08:52:39Z</time>
      </trkpt>
      <trkpt lat="46.66485" lon="6.06067">
        <ele>995</ele>
        <time>2020-08-31T08:53:02Z</time>
      </trkpt>
      <trkpt lat="46.66484" lon="6.06053">
        <ele>996</ele>
        <time>2020-08-31T08:53:12Z</time>
      </trkpt>
      <trkpt lat="46.66478" lon="6.06044">
        <ele>998</ele>
        <time>2020-08-31T08:53:26Z</time>
      </trkpt>
      <trkpt lat="46.66474" lon="6.06034">
        <ele>999</ele>
        <time>2020-08-31T08:53:38Z</time>
      </trkpt>
      <trkpt lat="46.66473" lon="6.06016">
        <ele>1001</ele>
        <time>2020-08-31T08:53:51Z</time>
      </trkpt>
      <trkpt lat="46.66467" lon="6.06012">
        <ele>1002</ele>
        <time>2020-08-31T08:54:03Z</time>
      </trkpt>
      <trkpt lat="46.66463" lon="6.06002">
        <ele>1004</ele>
        <time>2020-08-31T08:54:15Z</time>
      </trkpt>
      <trkpt lat="46.66462" lon="6.05991">
        <ele>1005</ele>
        <time>2020-08-31T08:54:27Z</time>
      </trkpt>
      <trkpt lat="46.66459" lon="6.05982">
        <ele>1007</ele>
        <time>2020-08-31T08:54:39Z</time>
      </trkpt>
      <trkpt lat="46.6646" lon="6.05973">
        <ele>1010</ele>
        <time>2020-08-31T08:54:56Z</time>
      </trkpt>
      <trkpt lat="46.66457" lon="6.05965">
        <ele>1012</ele>
        <time>2020-08-31T08:55:08Z</time>
      </trkpt>
      <trkpt lat="46.66453" lon="6.05936">
        <ele>1018</ele>
        <time>2020-08-31T08:55:45Z</time>
      </trkpt>
      <trkpt lat="46.66454" lon="6.05925">
        <ele>1020</ele>
        <time>2020-08-31T08:55:59Z</time>
      </trkpt>
      <trkpt lat="46.66454" lon="6.05916">
        <ele>1023</ele>
        <time>2020-08-31T08:56:15Z</time>
      </trkpt>
      <trkpt lat="46.66456" lon="6.05905">
        <ele>1025</ele>
        <time>2020-08-31T08:56:27Z</time>
      </trkpt>
      <trkpt lat="46.66455" lon="6.05897">
        <ele>1026</ele>
        <time>2020-08-31T08:56:39Z</time>
      </trkpt>
      <trkpt lat="46.66455" lon="6.05887">
        <ele>1028</ele>
        <time>2020-08-31T08:56:50Z</time>
      </trkpt>
      <trkpt lat="46.6646" lon="6.05855">
        <ele>1032</ele>
        <time>2020-08-31T08:57:26Z</time>
      </trkpt>
      <trkpt lat="46.66456" lon="6.05831">
        <ele>1035</ele>
        <time>2020-08-31T08:57:52Z</time>
      </trkpt>
      <trkpt lat="46.66455" lon="6.05823">
        <ele>1037</ele>
        <time>2020-08-31T08:58:10Z</time>
      </trkpt>
      <trkpt lat="46.66456" lon="6.05813">
        <ele>1038</ele>
        <time>2020-08-31T08:58:40Z</time>
      </trkpt>
      <trkpt lat="46.66458" lon="6.05804">
        <ele>1039</ele>
        <time>2020-08-31T08:59:17Z</time>
      </trkpt>
      <trkpt lat="46.66461" lon="6.05795">
        <ele>1040</ele>
        <time>2020-08-31T08:59:36Z</time>
      </trkpt>
      <trkpt lat="46.66462" lon="6.05787">
        <ele>1040</ele>
        <time>2020-08-31T09:00:06Z</time>
      </trkpt>
      <trkpt lat="46.66458" lon="6.05781">
        <ele>1040</ele>
        <time>2020-08-31T09:02:19Z</time>
      </trkpt>
      <trkpt lat="46.66459" lon="6.05778">
        <ele>1040</ele>
        <time>2020-08-31T09:03:42Z</time>
      </trkpt>
      <trkpt lat="46.66458" lon="6.05771">
        <ele>1040</ele>
        <time>2020-08-31T09:03:50Z</time>
      </trkpt>
      <trkpt lat="46.66459" lon="6.05762">
        <ele>1039</ele>
        <time>2020-08-31T09:04:02Z</time>
      </trkpt>
      <trkpt lat="46.66457" lon="6.05755">
        <ele>1039</ele>
        <time>2020-08-31T09:04:08Z</time>
      </trkpt>
      <trkpt lat="46.66455" lon="6.05745">
        <ele>1040</ele>
        <time>2020-08-31T09:04:17Z</time>
      </trkpt>
      <trkpt lat="46.66446" lon="6.05731">
        <ele>1042</ele>
        <time>2020-08-31T09:04:32Z</time>
      </trkpt>
      <trkpt lat="46.6644" lon="6.05715">
        <ele>1043</ele>
        <time>2020-08-31T09:04:44Z</time>
      </trkpt>
      <trkpt lat="46.66429" lon="6.05678">
        <ele>1042</ele>
        <time>2020-08-31T09:05:09Z</time>
      </trkpt>
      <trkpt lat="46.66428" lon="6.05668">
        <ele>1041</ele>
        <time>2020-08-31T09:05:18Z</time>
      </trkpt>
      <trkpt lat="46.66421" lon="6.05653">
        <ele>1041</ele>
        <time>2020-08-31T09:05:32Z</time>
      </trkpt>
      <trkpt lat="46.66417" lon="6.05648">
        <ele>1041</ele>
        <time>2020-08-31T09:05:37Z</time>
      </trkpt>
      <trkpt lat="46.66413" lon="6.0564">
        <ele>1041</ele>
        <time>2020-08-31T09:05:44Z</time>
      </trkpt>
      <trkpt lat="46.66408" lon="6.05635">
        <ele>1040</ele>
        <time>2020-08-31T09:05:48Z</time>
      </trkpt>
      <trkpt lat="46.66404" lon="6.05628">
        <ele>1040</ele>
        <time>2020-08-31T09:05:53Z</time>
      </trkpt>
      <trkpt lat="46.66404" lon="6.0562">
        <ele>1039</ele>
        <time>2020-08-31T09:05:58Z</time>
      </trkpt>
      <trkpt lat="46.66402" lon="6.05612">
        <ele>1039</ele>
        <time>2020-08-31T09:06:04Z</time>
      </trkpt>
      <trkpt lat="46.66403" lon="6.05601">
        <ele>1040</ele>
        <time>2020-08-31T09:06:12Z</time>
      </trkpt>
      <trkpt lat="46.66402" lon="6.05593">
        <ele>1040</ele>
        <time>2020-08-31T09:06:17Z</time>
      </trkpt>
      <trkpt lat="46.66396" lon="6.05581">
        <ele>1040</ele>
        <time>2020-08-31T09:06:27Z</time>
      </trkpt>
      <trkpt lat="46.66396" lon="6.05573">
        <ele>1040</ele>
        <time>2020-08-31T09:06:30Z</time>
      </trkpt>
      <trkpt lat="46.66397" lon="6.05565">
        <ele>1040</ele>
        <time>2020-08-31T09:06:34Z</time>
      </trkpt>
      <trkpt lat="46.66398" lon="6.05554">
        <ele>1041</ele>
        <time>2020-08-31T09:06:44Z</time>
      </trkpt>
      <trkpt lat="46.66399" lon="6.0554">
        <ele>1042</ele>
        <time>2020-08-31T09:06:57Z</time>
      </trkpt>
      <trkpt lat="46.66399" lon="6.05522">
        <ele>1042</ele>
        <time>2020-08-31T09:07:08Z</time>
      </trkpt>
      <trkpt lat="46.66405" lon="6.05507">
        <ele>1042</ele>
        <time>2020-08-31T09:07:20Z</time>
      </trkpt>
      <trkpt lat="46.66404" lon="6.05498">
        <ele>1042</ele>
        <time>2020-08-31T09:07:26Z</time>
      </trkpt>
      <trkpt lat="46.66405" lon="6.05482">
        <ele>1041</ele>
        <time>2020-08-31T09:07:36Z</time>
      </trkpt>
      <trkpt lat="46.66402" lon="6.05474">
        <ele>1042</ele>
        <time>2020-08-31T09:07:44Z</time>
      </trkpt>
      <trkpt lat="46.66398" lon="6.05468">
        <ele>1042</ele>
        <time>2020-08-31T09:07:49Z</time>
      </trkpt>
      <trkpt lat="46.66396" lon="6.0546">
        <ele>1042</ele>
        <time>2020-08-31T09:07:54Z</time>
      </trkpt>
      <trkpt lat="46.66393" lon="6.05452">
        <ele>1042</ele>
        <time>2020-08-31T09:08:03Z</time>
      </trkpt>
      <trkpt lat="46.66381" lon="6.05428">
        <ele>1045</ele>
        <time>2020-08-31T09:08:21Z</time>
      </trkpt>
      <trkpt lat="46.66379" lon="6.05422">
        <ele>1045</ele>
        <time>2020-08-31T09:08:25Z</time>
      </trkpt>
      <trkpt lat="46.66375" lon="6.05411">
        <ele>1045</ele>
        <time>2020-08-31T09:08:45Z</time>
      </trkpt>
      <trkpt lat="46.66372" lon="6.05405">
        <ele>1044</ele>
        <time>2020-08-31T09:09:14Z</time>
      </trkpt>
      <trkpt lat="46.66369" lon="6.05397">
        <ele>1044</ele>
        <time>2020-08-31T09:10:07Z</time>
      </trkpt>
      <trkpt lat="46.66381" lon="6.05373">
        <ele>1045</ele>
        <time>2020-08-31T09:10:21Z</time>
      </trkpt>
      <trkpt lat="46.66382" lon="6.05365">
        <ele>1045</ele>
        <time>2020-08-31T09:10:27Z</time>
      </trkpt>
      <trkpt lat="46.66382" lon="6.05355">
        <ele>1045</ele>
        <time>2020-08-31T09:10:32Z</time>
      </trkpt>
      <trkpt lat="46.66373" lon="6.05315">
        <ele>1044</ele>
        <time>2020-08-31T09:11:02Z</time>
      </trkpt>
      <trkpt lat="46.66367" lon="6.05305">
        <ele>1044</ele>
        <time>2020-08-31T09:11:08Z</time>
      </trkpt>
      <trkpt lat="46.66366" lon="6.05296">
        <ele>1044</ele>
        <time>2020-08-31T09:11:13Z</time>
      </trkpt>
      <trkpt lat="46.6637" lon="6.05253">
        <ele>1047</ele>
        <time>2020-08-31T09:11:51Z</time>
      </trkpt>
      <trkpt lat="46.6637" lon="6.05243">
        <ele>1047</ele>
        <time>2020-08-31T09:12:04Z</time>
      </trkpt>
      <trkpt lat="46.6637" lon="6.05233">
        <ele>1047</ele>
        <time>2020-08-31T09:12:12Z</time>
      </trkpt>
      <trkpt lat="46.66368" lon="6.05225">
        <ele>1047</ele>
        <time>2020-08-31T09:12:26Z</time>
      </trkpt>
      <trkpt lat="46.66362" lon="6.05222">
        <ele>1047</ele>
        <time>2020-08-31T09:12:57Z</time>
      </trkpt>
      <trkpt lat="46.66365" lon="6.05214">
        <ele>1047</ele>
        <time>2020-08-31T09:13:52Z</time>
      </trkpt>
      <trkpt lat="46.66365" lon="6.05204">
        <ele>1047</ele>
        <time>2020-08-31T09:14:04Z</time>
      </trkpt>
      <trkpt lat="46.66361" lon="6.05197">
        <ele>1047</ele>
        <time>2020-08-31T09:14:34Z</time>
      </trkpt>
      <trkpt lat="46.66362" lon="6.05188">
        <ele>1047</ele>
        <time>2020-08-31T09:14:58Z</time>
      </trkpt>
      <trkpt lat="46.66359" lon="6.05181">
        <ele>1047</ele>
        <time>2020-08-31T09:15:58Z</time>
      </trkpt>
      <trkpt lat="46.66366" lon="6.05178">
        <ele>1047</ele>
        <time>2020-08-31T09:18:09Z</time>
      </trkpt>
      <trkpt lat="46.66374" lon="6.05171">
        <ele>1048</ele>
        <time>2020-08-31T09:18:19Z</time>
      </trkpt>
      <trkpt lat="46.6638" lon="6.05167">
        <ele>1048</ele>
        <time>2020-08-31T09:18:25Z</time>
      </trkpt>
      <trkpt lat="46.66386" lon="6.0516">
        <ele>1047</ele>
        <time>2020-08-31T09:18:34Z</time>
      </trkpt>
      <trkpt lat="46.6639" lon="6.05151">
        <ele>1047</ele>
        <time>2020-08-31T09:18:42Z</time>
      </trkpt>
      <trkpt lat="46.66396" lon="6.05143">
        <ele>1047</ele>
        <time>2020-08-31T09:18:51Z</time>
      </trkpt>
      <trkpt lat="46.66404" lon="6.0514">
        <ele>1048</ele>
        <time>2020-08-31T09:19:04Z</time>
      </trkpt>
      <trkpt lat="46.66412" lon="6.05134">
        <ele>1048</ele>
        <time>2020-08-31T09:19:17Z</time>
      </trkpt>
      <trkpt lat="46.66419" lon="6.05132">
        <ele>1048</ele>
        <time>2020-08-31T09:19:31Z</time>
      </trkpt>
      <trkpt lat="46.66428" lon="6.05136">
        <ele>1049</ele>
        <time>2020-08-31T09:19:45Z</time>
      </trkpt>
      <trkpt lat="46.6644" lon="6.05135">
        <ele>1050</ele>
        <time>2020-08-31T09:19:59Z</time>
      </trkpt>
      <trkpt lat="46.66448" lon="6.05135">
        <ele>1050</ele>
        <time>2020-08-31T09:20:04Z</time>
      </trkpt>
      <trkpt lat="46.66455" lon="6.05129">
        <ele>1050</ele>
        <time>2020-08-31T09:20:17Z</time>
      </trkpt>
      <trkpt lat="46.6646" lon="6.05129">
        <ele>1051</ele>
        <time>2020-08-31T09:20:24Z</time>
      </trkpt>
      <trkpt lat="46.66483" lon="6.05134">
        <ele>1050</ele>
        <time>2020-08-31T09:20:47Z</time>
      </trkpt>
      <trkpt lat="46.66512" lon="6.05118">
        <ele>1050</ele>
        <time>2020-08-31T09:21:12Z</time>
      </trkpt>
      <trkpt lat="46.66517" lon="6.05122">
        <ele>1049</ele>
        <time>2020-08-31T09:21:17Z</time>
      </trkpt>
      <trkpt lat="46.66537" lon="6.05112">
        <ele>1050</ele>
        <time>2020-08-31T09:21:33Z</time>
      </trkpt>
      <trkpt lat="46.66545" lon="6.051">
        <ele>1050</ele>
        <time>2020-08-31T09:21:41Z</time>
      </trkpt>
      <trkpt lat="46.66548" lon="6.05093">
        <ele>1049</ele>
        <time>2020-08-31T09:21:46Z</time>
      </trkpt>
      <trkpt lat="46.66553" lon="6.05089">
        <ele>1049</ele>
        <time>2020-08-31T09:21:52Z</time>
      </trkpt>
      <trkpt lat="46.66558" lon="6.05082">
        <ele>1049</ele>
        <time>2020-08-31T09:21:59Z</time>
      </trkpt>
      <trkpt lat="46.66567" lon="6.05056">
        <ele>1049</ele>
        <time>2020-08-31T09:22:10Z</time>
      </trkpt>
      <trkpt lat="46.66575" lon="6.05042">
        <ele>1049</ele>
        <time>2020-08-31T09:22:18Z</time>
      </trkpt>
      <trkpt lat="46.66601" lon="6.0502">
        <ele>1049</ele>
        <time>2020-08-31T09:22:45Z</time>
      </trkpt>
      <trkpt lat="46.66609" lon="6.04992">
        <ele>1049</ele>
        <time>2020-08-31T09:23:02Z</time>
      </trkpt>
      <trkpt lat="46.66625" lon="6.0496">
        <ele>1050</ele>
        <time>2020-08-31T09:23:24Z</time>
      </trkpt>
      <trkpt lat="46.66626" lon="6.04952">
        <ele>1051</ele>
        <time>2020-08-31T09:23:30Z</time>
      </trkpt>
      <trkpt lat="46.6663" lon="6.04937">
        <ele>1051</ele>
        <time>2020-08-31T09:23:38Z</time>
      </trkpt>
      <trkpt lat="46.66634" lon="6.04919">
        <ele>1052</ele>
        <time>2020-08-31T09:23:50Z</time>
      </trkpt>
      <trkpt lat="46.66644" lon="6.0487">
        <ele>1052</ele>
        <time>2020-08-31T09:24:20Z</time>
      </trkpt>
      <trkpt lat="46.66645" lon="6.04858">
        <ele>1052</ele>
        <time>2020-08-31T09:24:28Z</time>
      </trkpt>
      <trkpt lat="46.6665" lon="6.04817">
        <ele>1052</ele>
        <time>2020-08-31T09:24:52Z</time>
      </trkpt>
      <trkpt lat="46.66658" lon="6.04782">
        <ele>1052</ele>
        <time>2020-08-31T09:25:18Z</time>
      </trkpt>
      <trkpt lat="46.66669" lon="6.04766">
        <ele>1052</ele>
        <time>2020-08-31T09:25:36Z</time>
      </trkpt>
      <trkpt lat="46.6667" lon="6.04758">
        <ele>1052</ele>
        <time>2020-08-31T09:25:56Z</time>
      </trkpt>
      <trkpt lat="46.6668" lon="6.04743">
        <ele>1052</ele>
        <time>2020-08-31T09:26:31Z</time>
      </trkpt>
      <trkpt lat="46.6669" lon="6.04724">
        <ele>1053</ele>
        <time>2020-08-31T09:26:52Z</time>
      </trkpt>
      <trkpt lat="46.66695" lon="6.0472">
        <ele>1053</ele>
        <time>2020-08-31T09:26:58Z</time>
      </trkpt>
      <trkpt lat="46.66702" lon="6.04715">
        <ele>1054</ele>
        <time>2020-08-31T09:27:06Z</time>
      </trkpt>
      <trkpt lat="46.66706" lon="6.04707">
        <ele>1056</ele>
        <time>2020-08-31T09:27:16Z</time>
      </trkpt>
      <trkpt lat="46.66718" lon="6.04699">
        <ele>1059</ele>
        <time>2020-08-31T09:27:33Z</time>
      </trkpt>
      <trkpt lat="46.66719" lon="6.04691">
        <ele>1061</ele>
        <time>2020-08-31T09:27:40Z</time>
      </trkpt>
      <trkpt lat="46.66723" lon="6.04685">
        <ele>1061</ele>
        <time>2020-08-31T09:27:47Z</time>
      </trkpt>
      <trkpt lat="46.66734" lon="6.04676">
        <ele>1062</ele>
        <time>2020-08-31T09:28:02Z</time>
      </trkpt>
      <trkpt lat="46.66745" lon="6.04657">
        <ele>1063</ele>
        <time>2020-08-31T09:28:19Z</time>
      </trkpt>
      <trkpt lat="46.66748" lon="6.04648">
        <ele>1064</ele>
        <time>2020-08-31T09:28:29Z</time>
      </trkpt>
      <trkpt lat="46.66751" lon="6.04641">
        <ele>1065</ele>
        <time>2020-08-31T09:28:41Z</time>
      </trkpt>
      <trkpt lat="46.66756" lon="6.0464">
        <ele>1067</ele>
        <time>2020-08-31T09:28:53Z</time>
      </trkpt>
      <trkpt lat="46.66767" lon="6.04623">
        <ele>1069</ele>
        <time>2020-08-31T09:29:12Z</time>
      </trkpt>
      <trkpt lat="46.66771" lon="6.04616">
        <ele>1071</ele>
        <time>2020-08-31T09:29:24Z</time>
      </trkpt>
      <trkpt lat="46.66776" lon="6.04609">
        <ele>1072</ele>
        <time>2020-08-31T09:29:36Z</time>
      </trkpt>
      <trkpt lat="46.66787" lon="6.04599">
        <ele>1073</ele>
        <time>2020-08-31T09:29:48Z</time>
      </trkpt>
      <trkpt lat="46.66791" lon="6.04592">
        <ele>1074</ele>
        <time>2020-08-31T09:29:53Z</time>
      </trkpt>
      <trkpt lat="46.66797" lon="6.04576">
        <ele>1074</ele>
        <time>2020-08-31T09:30:02Z</time>
      </trkpt>
      <trkpt lat="46.66801" lon="6.0457">
        <ele>1074</ele>
        <time>2020-08-31T09:30:10Z</time>
      </trkpt>
      <trkpt lat="46.66805" lon="6.04559">
        <ele>1075</ele>
        <time>2020-08-31T09:30:21Z</time>
      </trkpt>
      <trkpt lat="46.6681" lon="6.04553">
        <ele>1076</ele>
        <time>2020-08-31T09:30:28Z</time>
      </trkpt>
      <trkpt lat="46.66812" lon="6.04546">
        <ele>1077</ele>
        <time>2020-08-31T09:30:34Z</time>
      </trkpt>
      <trkpt lat="46.66818" lon="6.04537">
        <ele>1077</ele>
        <time>2020-08-31T09:30:42Z</time>
      </trkpt>
      <trkpt lat="46.66823" lon="6.0452">
        <ele>1078</ele>
        <time>2020-08-31T09:30:52Z</time>
      </trkpt>
      <trkpt lat="46.66822" lon="6.04508">
        <ele>1080</ele>
        <time>2020-08-31T09:31:06Z</time>
      </trkpt>
      <trkpt lat="46.66831" lon="6.04498">
        <ele>1081</ele>
        <time>2020-08-31T09:31:18Z</time>
      </trkpt>
      <trkpt lat="46.66834" lon="6.04489">
        <ele>1081</ele>
        <time>2020-08-31T09:31:26Z</time>
      </trkpt>
      <trkpt lat="46.66837" lon="6.04478">
        <ele>1082</ele>
        <time>2020-08-31T09:31:35Z</time>
      </trkpt>
      <trkpt lat="46.66842" lon="6.04472">
        <ele>1083</ele>
        <time>2020-08-31T09:31:44Z</time>
      </trkpt>
      <trkpt lat="46.6685" lon="6.04463">
        <ele>1085</ele>
        <time>2020-08-31T09:31:57Z</time>
      </trkpt>
      <trkpt lat="46.66863" lon="6.04448">
        <ele>1086</ele>
        <time>2020-08-31T09:32:17Z</time>
      </trkpt>
      <trkpt lat="46.66873" lon="6.04433">
        <ele>1088</ele>
        <time>2020-08-31T09:32:33Z</time>
      </trkpt>
      <trkpt lat="46.6689" lon="6.04414">
        <ele>1091</ele>
        <time>2020-08-31T09:33:03Z</time>
      </trkpt>
      <trkpt lat="46.66898" lon="6.04409">
        <ele>1091</ele>
        <time>2020-08-31T09:33:15Z</time>
      </trkpt>
      <trkpt lat="46.66903" lon="6.04406">
        <ele>1092</ele>
        <time>2020-08-31T09:33:21Z</time>
      </trkpt>
      <trkpt lat="46.6691" lon="6.04407">
        <ele>1092</ele>
        <time>2020-08-31T09:33:28Z</time>
      </trkpt>
      <trkpt lat="46.66915" lon="6.04412">
        <ele>1092</ele>
        <time>2020-08-31T09:33:33Z</time>
      </trkpt>
      <trkpt lat="46.66934" lon="6.04418">
        <ele>1094</ele>
        <time>2020-08-31T09:33:52Z</time>
      </trkpt>
      <trkpt lat="46.66941" lon="6.04416">
        <ele>1095</ele>
        <time>2020-08-31T09:33:59Z</time>
      </trkpt>
      <trkpt lat="46.66969" lon="6.04423">
        <ele>1098</ele>
        <time>2020-08-31T09:34:30Z</time>
      </trkpt>
      <trkpt lat="46.66975" lon="6.04423">
        <ele>1098</ele>
        <time>2020-08-31T09:34:36Z</time>
      </trkpt>
      <trkpt lat="46.66985" lon="6.04417">
        <ele>1099</ele>
        <time>2020-08-31T09:34:47Z</time>
      </trkpt>
      <trkpt lat="46.66995" lon="6.04413">
        <ele>1100</ele>
        <time>2020-08-31T09:34:58Z</time>
      </trkpt>
      <trkpt lat="46.67004" lon="6.04413">
        <ele>1101</ele>
        <time>2020-08-31T09:35:05Z</time>
      </trkpt>
      <trkpt lat="46.67009" lon="6.04415">
        <ele>1101</ele>
        <time>2020-08-31T09:35:09Z</time>
      </trkpt>
      <trkpt lat="46.67015" lon="6.04412">
        <ele>1101</ele>
        <time>2020-08-31T09:35:14Z</time>
      </trkpt>
      <trkpt lat="46.67021" lon="6.04417">
        <ele>1102</ele>
        <time>2020-08-31T09:35:23Z</time>
      </trkpt>
      <trkpt lat="46.67047" lon="6.04422">
        <ele>1106</ele>
        <time>2020-08-31T09:35:54Z</time>
      </trkpt>
      <trkpt lat="46.67057" lon="6.04419">
        <ele>1107</ele>
        <time>2020-08-31T09:36:03Z</time>
      </trkpt>
      <trkpt lat="46.67061" lon="6.04416">
        <ele>1108</ele>
        <time>2020-08-31T09:36:11Z</time>
      </trkpt>
      <trkpt lat="46.6708" lon="6.04414">
        <ele>1110</ele>
        <time>2020-08-31T09:36:32Z</time>
      </trkpt>
      <trkpt lat="46.67086" lon="6.04417">
        <ele>1111</ele>
        <time>2020-08-31T09:36:40Z</time>
      </trkpt>
      <trkpt lat="46.67103" lon="6.04422">
        <ele>1112</ele>
        <time>2020-08-31T09:36:58Z</time>
      </trkpt>
      <trkpt lat="46.67118" lon="6.044">
        <ele>1115</ele>
        <time>2020-08-31T09:37:24Z</time>
      </trkpt>
      <trkpt lat="46.67125" lon="6.04368">
        <ele>1118</ele>
        <time>2020-08-31T09:37:50Z</time>
      </trkpt>
      <trkpt lat="46.67126" lon="6.04328">
        <ele>1126</ele>
        <time>2020-08-31T09:38:59Z</time>
      </trkpt>
      <trkpt lat="46.67116" lon="6.04305">
        <ele>1128</ele>
        <time>2020-08-31T09:39:22Z</time>
      </trkpt>
      <trkpt lat="46.67115" lon="6.0428">
        <ele>1130</ele>
        <time>2020-08-31T09:39:46Z</time>
      </trkpt>
      <trkpt lat="46.67117" lon="6.04264">
        <ele>1133</ele>
        <time>2020-08-31T09:40:26Z</time>
      </trkpt>
      <trkpt lat="46.6712" lon="6.04258">
        <ele>1134</ele>
        <time>2020-08-31T09:40:32Z</time>
      </trkpt>
      <trkpt lat="46.67129" lon="6.0425">
        <ele>1136</ele>
        <time>2020-08-31T09:40:46Z</time>
      </trkpt>
      <trkpt lat="46.67133" lon="6.04243">
        <ele>1136</ele>
        <time>2020-08-31T09:40:50Z</time>
      </trkpt>
      <trkpt lat="46.67144" lon="6.04236">
        <ele>1137</ele>
        <time>2020-08-31T09:41:04Z</time>
      </trkpt>
      <trkpt lat="46.67145" lon="6.04227">
        <ele>1138</ele>
        <time>2020-08-31T09:41:08Z</time>
      </trkpt>
      <trkpt lat="46.67147" lon="6.0422">
        <ele>1139</ele>
        <time>2020-08-31T09:41:23Z</time>
      </trkpt>
      <trkpt lat="46.67147" lon="6.04215">
        <ele>1138</ele>
        <time>2020-08-31T09:42:29Z</time>
      </trkpt>
      <trkpt lat="46.6714" lon="6.04215">
        <ele>1137</ele>
        <time>2020-08-31T09:44:42Z</time>
      </trkpt>
      <trkpt lat="46.6713" lon="6.04218">
        <ele>1136</ele>
        <time>2020-08-31T09:44:53Z</time>
      </trkpt>
      <trkpt lat="46.67128" lon="6.04223">
        <ele>1135</ele>
        <time>2020-08-31T09:45:02Z</time>
      </trkpt>
      <trkpt lat="46.67124" lon="6.04227">
        <ele>1134</ele>
        <time>2020-08-31T09:45:41Z</time>
      </trkpt>
      <trkpt lat="46.67114" lon="6.04259">
        <ele>1126</ele>
        <time>2020-08-31T10:35:12Z</time>
      </trkpt>
      <trkpt lat="46.6711" lon="6.04264">
        <ele>1125</ele>
        <time>2020-08-31T10:35:20Z</time>
      </trkpt>
      <trkpt lat="46.67107" lon="6.0427">
        <ele>1125</ele>
        <time>2020-08-31T10:35:24Z</time>
      </trkpt>
      <trkpt lat="46.67107" lon="6.04277">
        <ele>1124</ele>
        <time>2020-08-31T10:35:29Z</time>
      </trkpt>
      <trkpt lat="46.67108" lon="6.04284">
        <ele>1124</ele>
        <time>2020-08-31T10:35:35Z</time>
      </trkpt>
      <trkpt lat="46.67112" lon="6.04295">
        <ele>1123</ele>
        <time>2020-08-31T10:35:44Z</time>
      </trkpt>
      <trkpt lat="46.6711" lon="6.04302">
        <ele>1123</ele>
        <time>2020-08-31T10:35:53Z</time>
      </trkpt>
      <trkpt lat="46.67114" lon="6.04328">
        <ele>1121</ele>
        <time>2020-08-31T10:36:10Z</time>
      </trkpt>
      <trkpt lat="46.67114" lon="6.04337">
        <ele>1120</ele>
        <time>2020-08-31T10:36:16Z</time>
      </trkpt>
      <trkpt lat="46.67119" lon="6.04346">
        <ele>1119</ele>
        <time>2020-08-31T10:36:30Z</time>
      </trkpt>
      <trkpt lat="46.67117" lon="6.04357">
        <ele>1117</ele>
        <time>2020-08-31T10:36:42Z</time>
      </trkpt>
      <trkpt lat="46.67119" lon="6.04365">
        <ele>1115</ele>
        <time>2020-08-31T10:36:54Z</time>
      </trkpt>
      <trkpt lat="46.6712" lon="6.04373">
        <ele>1114</ele>
        <time>2020-08-31T10:37:05Z</time>
      </trkpt>
      <trkpt lat="46.67107" lon="6.04397">
        <ele>1110</ele>
        <time>2020-08-31T10:37:37Z</time>
      </trkpt>
      <trkpt lat="46.67101" lon="6.04398">
        <ele>1109</ele>
        <time>2020-08-31T10:37:47Z</time>
      </trkpt>
      <trkpt lat="46.67092" lon="6.04397">
        <ele>1108</ele>
        <time>2020-08-31T10:37:56Z</time>
      </trkpt>
      <trkpt lat="46.6708" lon="6.04398">
        <ele>1108</ele>
        <time>2020-08-31T10:38:04Z</time>
      </trkpt>
      <trkpt lat="46.67067" lon="6.04399">
        <ele>1107</ele>
        <time>2020-08-31T10:38:13Z</time>
      </trkpt>
      <trkpt lat="46.67062" lon="6.04401">
        <ele>1107</ele>
        <time>2020-08-31T10:38:18Z</time>
      </trkpt>
      <trkpt lat="46.67055" lon="6.04408">
        <ele>1106</ele>
        <time>2020-08-31T10:38:27Z</time>
      </trkpt>
      <trkpt lat="46.6704" lon="6.0441">
        <ele>1103</ele>
        <time>2020-08-31T10:38:42Z</time>
      </trkpt>
      <trkpt lat="46.67031" lon="6.04409">
        <ele>1102</ele>
        <time>2020-08-31T10:38:56Z</time>
      </trkpt>
      <trkpt lat="46.67025" lon="6.0441">
        <ele>1101</ele>
        <time>2020-08-31T10:38:59Z</time>
      </trkpt>
      <trkpt lat="46.67015" lon="6.04405">
        <ele>1100</ele>
        <time>2020-08-31T10:39:10Z</time>
      </trkpt>
      <trkpt lat="46.66989" lon="6.04409">
        <ele>1099</ele>
        <time>2020-08-31T10:39:32Z</time>
      </trkpt>
      <trkpt lat="46.66983" lon="6.0441">
        <ele>1098</ele>
        <time>2020-08-31T10:39:36Z</time>
      </trkpt>
      <trkpt lat="46.6694" lon="6.04394">
        <ele>1095</ele>
        <time>2020-08-31T10:40:10Z</time>
      </trkpt>
      <trkpt lat="46.66933" lon="6.04391">
        <ele>1094</ele>
        <time>2020-08-31T10:40:17Z</time>
      </trkpt>
      <trkpt lat="46.66926" lon="6.04391">
        <ele>1094</ele>
        <time>2020-08-31T10:40:25Z</time>
      </trkpt>
      <trkpt lat="46.66921" lon="6.04386">
        <ele>1093</ele>
        <time>2020-08-31T10:40:39Z</time>
      </trkpt>
      <trkpt lat="46.66918" lon="6.04377">
        <ele>1092</ele>
        <time>2020-08-31T10:40:46Z</time>
      </trkpt>
      <trkpt lat="46.66921" lon="6.04363">
        <ele>1090</ele>
        <time>2020-08-31T10:41:00Z</time>
      </trkpt>
      <trkpt lat="46.66926" lon="6.04349">
        <ele>1089</ele>
        <time>2020-08-31T10:41:12Z</time>
      </trkpt>
      <trkpt lat="46.66929" lon="6.04339">
        <ele>1089</ele>
        <time>2020-08-31T10:41:19Z</time>
      </trkpt>
      <trkpt lat="46.66927" lon="6.04318">
        <ele>1088</ele>
        <time>2020-08-31T10:41:29Z</time>
      </trkpt>
      <trkpt lat="46.66923" lon="6.04313">
        <ele>1088</ele>
        <time>2020-08-31T10:41:34Z</time>
      </trkpt>
      <trkpt lat="46.66917" lon="6.04314">
        <ele>1087</ele>
        <time>2020-08-31T10:41:38Z</time>
      </trkpt>
      <trkpt lat="46.66905" lon="6.04319">
        <ele>1087</ele>
        <time>2020-08-31T10:41:46Z</time>
      </trkpt>
      <trkpt lat="46.66887" lon="6.04338">
        <ele>1085</ele>
        <time>2020-08-31T10:42:06Z</time>
      </trkpt>
      <trkpt lat="46.6688" lon="6.04342">
        <ele>1085</ele>
        <time>2020-08-31T10:42:11Z</time>
      </trkpt>
      <trkpt lat="46.66875" lon="6.04351">
        <ele>1083</ele>
        <time>2020-08-31T10:42:19Z</time>
      </trkpt>
      <trkpt lat="46.66869" lon="6.04356">
        <ele>1083</ele>
        <time>2020-08-31T10:42:26Z</time>
      </trkpt>
      <trkpt lat="46.66851" lon="6.04383">
        <ele>1080</ele>
        <time>2020-08-31T10:42:48Z</time>
      </trkpt>
      <trkpt lat="46.6683" lon="6.04422">
        <ele>1077</ele>
        <time>2020-08-31T10:43:18Z</time>
      </trkpt>
      <trkpt lat="46.66826" lon="6.04426">
        <ele>1076</ele>
        <time>2020-08-31T10:43:22Z</time>
      </trkpt>
      <trkpt lat="46.66823" lon="6.04431">
        <ele>1076</ele>
        <time>2020-08-31T10:43:26Z</time>
      </trkpt>
      <trkpt lat="46.66816" lon="6.04441">
        <ele>1075</ele>
        <time>2020-08-31T10:43:34Z</time>
      </trkpt>
      <trkpt lat="46.66814" lon="6.04448">
        <ele>1074</ele>
        <time>2020-08-31T10:43:38Z</time>
      </trkpt>
      <trkpt lat="46.66806" lon="6.04461">
        <ele>1073</ele>
        <time>2020-08-31T10:43:51Z</time>
      </trkpt>
      <trkpt lat="46.66799" lon="6.04475">
        <ele>1072</ele>
        <time>2020-08-31T10:43:59Z</time>
      </trkpt>
      <trkpt lat="46.66784" lon="6.04494">
        <ele>1070</ele>
        <time>2020-08-31T10:44:20Z</time>
      </trkpt>
      <trkpt lat="46.6678" lon="6.04496">
        <ele>1069</ele>
        <time>2020-08-31T10:44:26Z</time>
      </trkpt>
      <trkpt lat="46.6676" lon="6.04521">
        <ele>1067</ele>
        <time>2020-08-31T10:44:46Z</time>
      </trkpt>
      <trkpt lat="46.66756" lon="6.04533">
        <ele>1066</ele>
        <time>2020-08-31T10:44:53Z</time>
      </trkpt>
      <trkpt lat="46.66753" lon="6.04546">
        <ele>1065</ele>
        <time>2020-08-31T10:45:01Z</time>
      </trkpt>
      <trkpt lat="46.66749" lon="6.0455">
        <ele>1065</ele>
        <time>2020-08-31T10:45:04Z</time>
      </trkpt>
      <trkpt lat="46.66744" lon="6.04566">
        <ele>1064</ele>
        <time>2020-08-31T10:45:14Z</time>
      </trkpt>
      <trkpt lat="46.66736" lon="6.04583">
        <ele>1062</ele>
        <time>2020-08-31T10:45:26Z</time>
      </trkpt>
      <trkpt lat="46.66723" lon="6.04603">
        <ele>1060</ele>
        <time>2020-08-31T10:45:47Z</time>
      </trkpt>
      <trkpt lat="46.66719" lon="6.0461">
        <ele>1059</ele>
        <time>2020-08-31T10:45:52Z</time>
      </trkpt>
      <trkpt lat="46.66715" lon="6.04616">
        <ele>1059</ele>
        <time>2020-08-31T10:45:56Z</time>
      </trkpt>
      <trkpt lat="46.66708" lon="6.04638">
        <ele>1057</ele>
        <time>2020-08-31T10:46:10Z</time>
      </trkpt>
      <trkpt lat="46.66707" lon="6.04649">
        <ele>1057</ele>
        <time>2020-08-31T10:46:16Z</time>
      </trkpt>
      <trkpt lat="46.66703" lon="6.04667">
        <ele>1055</ele>
        <time>2020-08-31T10:46:30Z</time>
      </trkpt>
      <trkpt lat="46.66702" lon="6.04675">
        <ele>1055</ele>
        <time>2020-08-31T10:46:36Z</time>
      </trkpt>
      <trkpt lat="46.66687" lon="6.04712">
        <ele>1052</ele>
        <time>2020-08-31T10:47:01Z</time>
      </trkpt>
      <trkpt lat="46.66687" lon="6.04717">
        <ele>1052</ele>
        <time>2020-08-31T10:47:05Z</time>
      </trkpt>
      <trkpt lat="46.66665" lon="6.0475">
        <ele>1050</ele>
        <time>2020-08-31T10:47:38Z</time>
      </trkpt>
      <trkpt lat="46.66659" lon="6.04758">
        <ele>1050</ele>
        <time>2020-08-31T10:47:45Z</time>
      </trkpt>
      <trkpt lat="46.66648" lon="6.04781">
        <ele>1050</ele>
        <time>2020-08-31T10:48:02Z</time>
      </trkpt>
      <trkpt lat="46.66642" lon="6.04812">
        <ele>1050</ele>
        <time>2020-08-31T10:48:24Z</time>
      </trkpt>
      <trkpt lat="46.66641" lon="6.04831">
        <ele>1050</ele>
        <time>2020-08-31T10:48:34Z</time>
      </trkpt>
      <trkpt lat="46.66636" lon="6.04848">
        <ele>1050</ele>
        <time>2020-08-31T10:48:44Z</time>
      </trkpt>
      <trkpt lat="46.66636" lon="6.04872">
        <ele>1050</ele>
        <time>2020-08-31T10:48:59Z</time>
      </trkpt>
      <trkpt lat="46.66627" lon="6.04922">
        <ele>1050</ele>
        <time>2020-08-31T10:49:30Z</time>
      </trkpt>
      <trkpt lat="46.66615" lon="6.04963">
        <ele>1049</ele>
        <time>2020-08-31T10:49:59Z</time>
      </trkpt>
      <trkpt lat="46.66609" lon="6.04968">
        <ele>1049</ele>
        <time>2020-08-31T10:50:07Z</time>
      </trkpt>
      <trkpt lat="46.66598" lon="6.04989">
        <ele>1048</ele>
        <time>2020-08-31T10:50:22Z</time>
      </trkpt>
      <trkpt lat="46.66596" lon="6.04998">
        <ele>1048</ele>
        <time>2020-08-31T10:50:26Z</time>
      </trkpt>
      <trkpt lat="46.6659" lon="6.05006">
        <ele>1049</ele>
        <time>2020-08-31T10:50:33Z</time>
      </trkpt>
      <trkpt lat="46.66582" lon="6.05016">
        <ele>1049</ele>
        <time>2020-08-31T10:50:43Z</time>
      </trkpt>
      <trkpt lat="46.66563" lon="6.05055">
        <ele>1050</ele>
        <time>2020-08-31T10:51:17Z</time>
      </trkpt>
      <trkpt lat="46.66561" lon="6.05063">
        <ele>1050</ele>
        <time>2020-08-31T10:51:22Z</time>
      </trkpt>
      <trkpt lat="46.66555" lon="6.05068">
        <ele>1050</ele>
        <time>2020-08-31T10:51:27Z</time>
      </trkpt>
      <trkpt lat="46.66543" lon="6.05088">
        <ele>1050</ele>
        <time>2020-08-31T10:51:39Z</time>
      </trkpt>
      <trkpt lat="46.66532" lon="6.05098">
        <ele>1050</ele>
        <time>2020-08-31T10:51:50Z</time>
      </trkpt>
      <trkpt lat="46.66521" lon="6.05102">
        <ele>1050</ele>
        <time>2020-08-31T10:52:01Z</time>
      </trkpt>
      <trkpt lat="46.66511" lon="6.05099">
        <ele>1051</ele>
        <time>2020-08-31T10:52:11Z</time>
      </trkpt>
      <trkpt lat="46.66506" lon="6.051">
        <ele>1051</ele>
        <time>2020-08-31T10:52:15Z</time>
      </trkpt>
      <trkpt lat="46.66481" lon="6.05112">
        <ele>1051</ele>
        <time>2020-08-31T10:52:40Z</time>
      </trkpt>
      <trkpt lat="46.6647" lon="6.0511">
        <ele>1052</ele>
        <time>2020-08-31T10:52:50Z</time>
      </trkpt>
      <trkpt lat="46.66454" lon="6.05116">
        <ele>1051</ele>
        <time>2020-08-31T10:53:03Z</time>
      </trkpt>
      <trkpt lat="46.66449" lon="6.05112">
        <ele>1051</ele>
        <time>2020-08-31T10:53:08Z</time>
      </trkpt>
      <trkpt lat="46.66443" lon="6.05114">
        <ele>1051</ele>
        <time>2020-08-31T10:53:17Z</time>
      </trkpt>
      <trkpt lat="46.66434" lon="6.05113">
        <ele>1050</ele>
        <time>2020-08-31T10:53:28Z</time>
      </trkpt>
      <trkpt lat="46.66428" lon="6.05112">
        <ele>1050</ele>
        <time>2020-08-31T10:53:47Z</time>
      </trkpt>
      <trkpt lat="46.66429" lon="6.05102">
        <ele>1046</ele>
        <time>2020-08-31T10:54:17Z</time>
      </trkpt>
      <trkpt lat="46.66432" lon="6.05078">
        <ele>1044</ele>
        <time>2020-08-31T10:54:33Z</time>
      </trkpt>
      <trkpt lat="46.66431" lon="6.0507">
        <ele>1044</ele>
        <time>2020-08-31T10:54:38Z</time>
      </trkpt>
      <trkpt lat="46.66419" lon="6.05052">
        <ele>1043</ele>
        <time>2020-08-31T10:54:53Z</time>
      </trkpt>
      <trkpt lat="46.66412" lon="6.05034">
        <ele>1043</ele>
        <time>2020-08-31T10:55:08Z</time>
      </trkpt>
      <trkpt lat="46.66412" lon="6.05021">
        <ele>1043</ele>
        <time>2020-08-31T10:55:26Z</time>
      </trkpt>
      <trkpt lat="46.66409" lon="6.05014">
        <ele>1042</ele>
        <time>2020-08-31T10:55:30Z</time>
      </trkpt>
      <trkpt lat="46.66407" lon="6.05006">
        <ele>1042</ele>
        <time>2020-08-31T10:55:35Z</time>
      </trkpt>
      <trkpt lat="46.66404" lon="6.04999">
        <ele>1042</ele>
        <time>2020-08-31T10:55:40Z</time>
      </trkpt>
      <trkpt lat="46.664" lon="6.04981">
        <ele>1042</ele>
        <time>2020-08-31T10:55:53Z</time>
      </trkpt>
      <trkpt lat="46.66395" lon="6.04975">
        <ele>1041</ele>
        <time>2020-08-31T10:55:59Z</time>
      </trkpt>
      <trkpt lat="46.66393" lon="6.04958">
        <ele>1041</ele>
        <time>2020-08-31T10:56:09Z</time>
      </trkpt>
      <trkpt lat="46.66389" lon="6.0495">
        <ele>1041</ele>
        <time>2020-08-31T10:56:19Z</time>
      </trkpt>
      <trkpt lat="46.66385" lon="6.04944">
        <ele>1041</ele>
        <time>2020-08-31T10:56:22Z</time>
      </trkpt>
      <trkpt lat="46.6638" lon="6.04928">
        <ele>1040</ele>
        <time>2020-08-31T10:56:33Z</time>
      </trkpt>
      <trkpt lat="46.66381" lon="6.04912">
        <ele>1040</ele>
        <time>2020-08-31T10:56:41Z</time>
      </trkpt>
      <trkpt lat="46.66382" lon="6.049">
        <ele>1039</ele>
        <time>2020-08-31T10:56:50Z</time>
      </trkpt>
      <trkpt lat="46.66378" lon="6.04884">
        <ele>1038</ele>
        <time>2020-08-31T10:56:57Z</time>
      </trkpt>
      <trkpt lat="46.66379" lon="6.04875">
        <ele>1037</ele>
        <time>2020-08-31T10:57:01Z</time>
      </trkpt>
      <trkpt lat="46.66377" lon="6.04863">
        <ele>1038</ele>
        <time>2020-08-31T10:57:11Z</time>
      </trkpt>
      <trkpt lat="46.66375" lon="6.04855">
        <ele>1038</ele>
        <time>2020-08-31T10:57:15Z</time>
      </trkpt>
      <trkpt lat="46.66373" lon="6.04841">
        <ele>1037</ele>
        <time>2020-08-31T10:57:25Z</time>
      </trkpt>
      <trkpt lat="46.66371" lon="6.04833">
        <ele>1038</ele>
        <time>2020-08-31T10:57:30Z</time>
      </trkpt>
      <trkpt lat="46.66368" lon="6.04826">
        <ele>1038</ele>
        <time>2020-08-31T10:57:34Z</time>
      </trkpt>
      <trkpt lat="46.66364" lon="6.04822">
        <ele>1038</ele>
        <time>2020-08-31T10:57:38Z</time>
      </trkpt>
      <trkpt lat="46.66358" lon="6.0481">
        <ele>1039</ele>
        <time>2020-08-31T10:57:52Z</time>
      </trkpt>
      <trkpt lat="46.66354" lon="6.04801">
        <ele>1040</ele>
        <time>2020-08-31T10:57:58Z</time>
      </trkpt>
      <trkpt lat="46.66351" lon="6.0478">
        <ele>1043</ele>
        <time>2020-08-31T10:58:14Z</time>
      </trkpt>
      <trkpt lat="46.66352" lon="6.04764">
        <ele>1043</ele>
        <time>2020-08-31T10:58:25Z</time>
      </trkpt>
      <trkpt lat="46.66353" lon="6.04755">
        <ele>1043</ele>
        <time>2020-08-31T10:58:29Z</time>
      </trkpt>
      <trkpt lat="46.66352" lon="6.04734">
        <ele>1043</ele>
        <time>2020-08-31T10:58:43Z</time>
      </trkpt>
      <trkpt lat="46.66348" lon="6.04726">
        <ele>1043</ele>
        <time>2020-08-31T10:58:51Z</time>
      </trkpt>
      <trkpt lat="46.66342" lon="6.04708">
        <ele>1043</ele>
        <time>2020-08-31T10:59:07Z</time>
      </trkpt>
      <trkpt lat="46.66339" lon="6.04698">
        <ele>1045</ele>
        <time>2020-08-31T10:59:15Z</time>
      </trkpt>
      <trkpt lat="46.66333" lon="6.04688">
        <ele>1045</ele>
        <time>2020-08-31T10:59:24Z</time>
      </trkpt>
      <trkpt lat="46.66327" lon="6.0468">
        <ele>1046</ele>
        <time>2020-08-31T10:59:31Z</time>
      </trkpt>
      <trkpt lat="46.66321" lon="6.04676">
        <ele>1046</ele>
        <time>2020-08-31T10:59:36Z</time>
      </trkpt>
      <trkpt lat="46.66317" lon="6.04669">
        <ele>1047</ele>
        <time>2020-08-31T10:59:41Z</time>
      </trkpt>
      <trkpt lat="46.6631" lon="6.04643">
        <ele>1046</ele>
        <time>2020-08-31T10:59:55Z</time>
      </trkpt>
      <trkpt lat="46.66308" lon="6.04635">
        <ele>1047</ele>
        <time>2020-08-31T10:59:59Z</time>
      </trkpt>
      <trkpt lat="46.66303" lon="6.04621">
        <ele>1049</ele>
        <time>2020-08-31T11:00:10Z</time>
      </trkpt>
      <trkpt lat="46.66298" lon="6.04605">
        <ele>1049</ele>
        <time>2020-08-31T11:00:23Z</time>
      </trkpt>
      <trkpt lat="46.66293" lon="6.04597">
        <ele>1050</ele>
        <time>2020-08-31T11:00:28Z</time>
      </trkpt>
      <trkpt lat="46.66283" lon="6.04577">
        <ele>1050</ele>
        <time>2020-08-31T11:00:43Z</time>
      </trkpt>
      <trkpt lat="46.66271" lon="6.04535">
        <ele>1055</ele>
        <time>2020-08-31T11:01:16Z</time>
      </trkpt>
      <trkpt lat="46.66266" lon="6.04526">
        <ele>1055</ele>
        <time>2020-08-31T11:01:21Z</time>
      </trkpt>
      <trkpt lat="46.66263" lon="6.04519">
        <ele>1055</ele>
        <time>2020-08-31T11:01:26Z</time>
      </trkpt>
      <trkpt lat="46.66258" lon="6.04511">
        <ele>1055</ele>
        <time>2020-08-31T11:01:35Z</time>
      </trkpt>
      <trkpt lat="46.66257" lon="6.04503">
        <ele>1055</ele>
        <time>2020-08-31T11:01:41Z</time>
      </trkpt>
      <trkpt lat="46.66251" lon="6.04475">
        <ele>1053</ele>
        <time>2020-08-31T11:02:02Z</time>
      </trkpt>
      <trkpt lat="46.66248" lon="6.04469">
        <ele>1053</ele>
        <time>2020-08-31T11:02:09Z</time>
      </trkpt>
      <trkpt lat="46.6624" lon="6.04466">
        <ele>1055</ele>
        <time>2020-08-31T11:02:27Z</time>
      </trkpt>
      <trkpt lat="46.66235" lon="6.04447">
        <ele>1056</ele>
        <time>2020-08-31T11:02:43Z</time>
      </trkpt>
      <trkpt lat="46.66234" lon="6.04438">
        <ele>1056</ele>
        <time>2020-08-31T11:02:48Z</time>
      </trkpt>
      <trkpt lat="46.6623" lon="6.0443">
        <ele>1055</ele>
        <time>2020-08-31T11:03:00Z</time>
      </trkpt>
      <trkpt lat="46.66226" lon="6.04419">
        <ele>1056</ele>
        <time>2020-08-31T11:03:12Z</time>
      </trkpt>
      <trkpt lat="46.6622" lon="6.04412">
        <ele>1055</ele>
        <time>2020-08-31T11:03:45Z</time>
      </trkpt>
      <trkpt lat="46.66216" lon="6.04407">
        <ele>1055</ele>
        <time>2020-08-31T11:04:03Z</time>
      </trkpt>
      <trkpt lat="46.66214" lon="6.04396">
        <ele>1055</ele>
        <time>2020-08-31T11:04:21Z</time>
      </trkpt>
      <trkpt lat="46.66211" lon="6.04389">
        <ele>1054</ele>
        <time>2020-08-31T11:04:57Z</time>
      </trkpt>
      <trkpt lat="46.66206" lon="6.04392">
        <ele>1053</ele>
        <time>2020-08-31T11:07:03Z</time>
      </trkpt>
      <trkpt lat="46.66203" lon="6.04402">
        <ele>1052</ele>
        <time>2020-08-31T11:08:33Z</time>
      </trkpt>
      <trkpt lat="46.66202" lon="6.04457">
        <ele>1053</ele>
        <time>2020-08-31T11:17:42Z</time>
      </trkpt>
      <trkpt lat="46.66202" lon="6.04457">
        <ele>1053</ele>
        <time>2020-08-31T11:17:43Z</time>
      </trkpt>
      <trkpt lat="46.66195" lon="6.04459">
        <ele>1055</ele>
        <time>2020-08-31T11:17:50Z</time>
      </trkpt>
      <trkpt lat="46.6619" lon="6.04464">
        <ele>1056</ele>
        <time>2020-08-31T11:17:54Z</time>
      </trkpt>
      <trkpt lat="46.66174" lon="6.04476">
        <ele>1059</ele>
        <time>2020-08-31T11:18:13Z</time>
      </trkpt>
      <trkpt lat="46.6617" lon="6.04482">
        <ele>1060</ele>
        <time>2020-08-31T11:18:22Z</time>
      </trkpt>
      <trkpt lat="46.66162" lon="6.04479">
        <ele>1060</ele>
        <time>2020-08-31T11:18:40Z</time>
      </trkpt>
      <trkpt lat="46.66159" lon="6.04487">
        <ele>1059</ele>
        <time>2020-08-31T11:18:46Z</time>
      </trkpt>
      <trkpt lat="46.66154" lon="6.04491">
        <ele>1059</ele>
        <time>2020-08-31T11:18:50Z</time>
      </trkpt>
      <trkpt lat="46.66149" lon="6.04478">
        <ele>1062</ele>
        <time>2020-08-31T11:19:22Z</time>
      </trkpt>
      <trkpt lat="46.6614" lon="6.04439">
        <ele>1066</ele>
        <time>2020-08-31T11:19:52Z</time>
      </trkpt>
      <trkpt lat="46.66122" lon="6.04389">
        <ele>1065</ele>
        <time>2020-08-31T11:20:26Z</time>
      </trkpt>
      <trkpt lat="46.66118" lon="6.04379">
        <ele>1065</ele>
        <time>2020-08-31T11:20:34Z</time>
      </trkpt>
      <trkpt lat="46.66112" lon="6.04358">
        <ele>1066</ele>
        <time>2020-08-31T11:20:49Z</time>
      </trkpt>
      <trkpt lat="46.66104" lon="6.04339">
        <ele>1066</ele>
        <time>2020-08-31T11:21:02Z</time>
      </trkpt>
      <trkpt lat="46.66102" lon="6.04328">
        <ele>1067</ele>
        <time>2020-08-31T11:21:09Z</time>
      </trkpt>
      <trkpt lat="46.66096" lon="6.04321">
        <ele>1066</ele>
        <time>2020-08-31T11:21:16Z</time>
      </trkpt>
      <trkpt lat="46.6609" lon="6.04307">
        <ele>1067</ele>
        <time>2020-08-31T11:21:28Z</time>
      </trkpt>
      <trkpt lat="46.66086" lon="6.0429">
        <ele>1066</ele>
        <time>2020-08-31T11:21:39Z</time>
      </trkpt>
      <trkpt lat="46.66084" lon="6.04279">
        <ele>1066</ele>
        <time>2020-08-31T11:21:47Z</time>
      </trkpt>
      <trkpt lat="46.66082" lon="6.0427">
        <ele>1066</ele>
        <time>2020-08-31T11:21:52Z</time>
      </trkpt>
      <trkpt lat="46.66083" lon="6.04259">
        <ele>1065</ele>
        <time>2020-08-31T11:22:00Z</time>
      </trkpt>
      <trkpt lat="46.66068" lon="6.04233">
        <ele>1065</ele>
        <time>2020-08-31T11:22:18Z</time>
      </trkpt>
      <trkpt lat="46.66064" lon="6.04217">
        <ele>1064</ele>
        <time>2020-08-31T11:22:28Z</time>
      </trkpt>
      <trkpt lat="46.66057" lon="6.04209">
        <ele>1064</ele>
        <time>2020-08-31T11:22:37Z</time>
      </trkpt>
      <trkpt lat="46.66055" lon="6.04185">
        <ele>1063</ele>
        <time>2020-08-31T11:22:55Z</time>
      </trkpt>
      <trkpt lat="46.66053" lon="6.04174">
        <ele>1063</ele>
        <time>2020-08-31T11:23:03Z</time>
      </trkpt>
      <trkpt lat="46.66042" lon="6.04153">
        <ele>1065</ele>
        <time>2020-08-31T11:23:16Z</time>
      </trkpt>
      <trkpt lat="46.66033" lon="6.04142">
        <ele>1066</ele>
        <time>2020-08-31T11:23:26Z</time>
      </trkpt>
      <trkpt lat="46.66029" lon="6.04135">
        <ele>1066</ele>
        <time>2020-08-31T11:23:31Z</time>
      </trkpt>
      <trkpt lat="46.66026" lon="6.04124">
        <ele>1065</ele>
        <time>2020-08-31T11:23:39Z</time>
      </trkpt>
      <trkpt lat="46.66024" lon="6.04116">
        <ele>1066</ele>
        <time>2020-08-31T11:23:45Z</time>
      </trkpt>
      <trkpt lat="46.66021" lon="6.04108">
        <ele>1065</ele>
        <time>2020-08-31T11:23:51Z</time>
      </trkpt>
      <trkpt lat="46.6602" lon="6.041">
        <ele>1065</ele>
        <time>2020-08-31T11:23:56Z</time>
      </trkpt>
      <trkpt lat="46.66018" lon="6.04092">
        <ele>1065</ele>
        <time>2020-08-31T11:24:05Z</time>
      </trkpt>
      <trkpt lat="46.66008" lon="6.04057">
        <ele>1069</ele>
        <time>2020-08-31T11:24:33Z</time>
      </trkpt>
      <trkpt lat="46.66004" lon="6.04053">
        <ele>1069</ele>
        <time>2020-08-31T11:24:38Z</time>
      </trkpt>
      <trkpt lat="46.65999" lon="6.04048">
        <ele>1069</ele>
        <time>2020-08-31T11:24:42Z</time>
      </trkpt>
      <trkpt lat="46.65995" lon="6.04042">
        <ele>1069</ele>
        <time>2020-08-31T11:24:48Z</time>
      </trkpt>
      <trkpt lat="46.65993" lon="6.04026">
        <ele>1068</ele>
        <time>2020-08-31T11:25:01Z</time>
      </trkpt>
      <trkpt lat="46.65986" lon="6.03993">
        <ele>1063</ele>
        <time>2020-08-31T11:25:31Z</time>
      </trkpt>
      <trkpt lat="46.65985" lon="6.0398">
        <ele>1062</ele>
        <time>2020-08-31T11:25:38Z</time>
      </trkpt>
      <trkpt lat="46.6598" lon="6.03964">
        <ele>1061</ele>
        <time>2020-08-31T11:25:48Z</time>
      </trkpt>
      <trkpt lat="46.65976" lon="6.03956">
        <ele>1061</ele>
        <time>2020-08-31T11:25:54Z</time>
      </trkpt>
      <trkpt lat="46.65969" lon="6.0394">
        <ele>1062</ele>
        <time>2020-08-31T11:26:04Z</time>
      </trkpt>
      <trkpt lat="46.65967" lon="6.03932">
        <ele>1062</ele>
        <time>2020-08-31T11:26:10Z</time>
      </trkpt>
      <trkpt lat="46.65962" lon="6.03922">
        <ele>1063</ele>
        <time>2020-08-31T11:26:18Z</time>
      </trkpt>
      <trkpt lat="46.65953" lon="6.03909">
        <ele>1063</ele>
        <time>2020-08-31T11:26:29Z</time>
      </trkpt>
      <trkpt lat="46.65947" lon="6.03904">
        <ele>1063</ele>
        <time>2020-08-31T11:26:34Z</time>
      </trkpt>
      <trkpt lat="46.65943" lon="6.03893">
        <ele>1063</ele>
        <time>2020-08-31T11:26:43Z</time>
      </trkpt>
      <trkpt lat="46.65939" lon="6.03885">
        <ele>1062</ele>
        <time>2020-08-31T11:26:50Z</time>
      </trkpt>
      <trkpt lat="46.65925" lon="6.03857">
        <ele>1061</ele>
        <time>2020-08-31T11:27:12Z</time>
      </trkpt>
      <trkpt lat="46.6592" lon="6.03852">
        <ele>1060</ele>
        <time>2020-08-31T11:27:17Z</time>
      </trkpt>
      <trkpt lat="46.65896" lon="6.03839">
        <ele>1054</ele>
        <time>2020-08-31T11:27:51Z</time>
      </trkpt>
      <trkpt lat="46.6588" lon="6.03838">
        <ele>1052</ele>
        <time>2020-08-31T11:28:07Z</time>
      </trkpt>
      <trkpt lat="46.65876" lon="6.03833">
        <ele>1049</ele>
        <time>2020-08-31T11:28:23Z</time>
      </trkpt>
      <trkpt lat="46.6587" lon="6.03822">
        <ele>1047</ele>
        <time>2020-08-31T11:28:34Z</time>
      </trkpt>
      <trkpt lat="46.65867" lon="6.03815">
        <ele>1046</ele>
        <time>2020-08-31T11:28:38Z</time>
      </trkpt>
      <trkpt lat="46.65858" lon="6.03779">
        <ele>1038</ele>
        <time>2020-08-31T11:29:18Z</time>
      </trkpt>
      <trkpt lat="46.65856" lon="6.03772">
        <ele>1036</ele>
        <time>2020-08-31T11:29:24Z</time>
      </trkpt>
      <trkpt lat="46.65845" lon="6.03736">
        <ele>1034</ele>
        <time>2020-08-31T11:29:48Z</time>
      </trkpt>
      <trkpt lat="46.65836" lon="6.03723">
        <ele>1034</ele>
        <time>2020-08-31T11:29:57Z</time>
      </trkpt>
      <trkpt lat="46.65821" lon="6.03701">
        <ele>1038</ele>
        <time>2020-08-31T11:30:17Z</time>
      </trkpt>
      <trkpt lat="46.65821" lon="6.03689">
        <ele>1037</ele>
        <time>2020-08-31T11:30:26Z</time>
      </trkpt>
      <trkpt lat="46.65822" lon="6.03681">
        <ele>1037</ele>
        <time>2020-08-31T11:30:32Z</time>
      </trkpt>
      <trkpt lat="46.65821" lon="6.03671">
        <ele>1036</ele>
        <time>2020-08-31T11:30:39Z</time>
      </trkpt>
      <trkpt lat="46.65817" lon="6.03658">
        <ele>1035</ele>
        <time>2020-08-31T11:30:49Z</time>
      </trkpt>
      <trkpt lat="46.65805" lon="6.0365">
        <ele>1032</ele>
        <time>2020-08-31T11:31:13Z</time>
      </trkpt>
      <trkpt lat="46.65802" lon="6.0364">
        <ele>1032</ele>
        <time>2020-08-31T11:31:27Z</time>
      </trkpt>
      <trkpt lat="46.65796" lon="6.03621">
        <ele>1036</ele>
        <time>2020-08-31T11:31:56Z</time>
      </trkpt>
      <trkpt lat="46.65803" lon="6.03614">
        <ele>1039</ele>
        <time>2020-08-31T11:32:17Z</time>
      </trkpt>
      <trkpt lat="46.65808" lon="6.03606">
        <ele>1040</ele>
        <time>2020-08-31T11:32:25Z</time>
      </trkpt>
      <trkpt lat="46.65813" lon="6.03589">
        <ele>1041</ele>
        <time>2020-08-31T11:32:36Z</time>
      </trkpt>
      <trkpt lat="46.65809" lon="6.03581">
        <ele>1040</ele>
        <time>2020-08-31T11:32:45Z</time>
      </trkpt>
      <trkpt lat="46.65803" lon="6.03577">
        <ele>1040</ele>
        <time>2020-08-31T11:32:51Z</time>
      </trkpt>
      <trkpt lat="46.65799" lon="6.03562">
        <ele>1039</ele>
        <time>2020-08-31T11:33:00Z</time>
      </trkpt>
      <trkpt lat="46.65794" lon="6.03557">
        <ele>1038</ele>
        <time>2020-08-31T11:33:06Z</time>
      </trkpt>
      <trkpt lat="46.6578" lon="6.03518">
        <ele>1032</ele>
        <time>2020-08-31T11:33:42Z</time>
      </trkpt>
      <trkpt lat="46.65775" lon="6.03511">
        <ele>1032</ele>
        <time>2020-08-31T11:33:54Z</time>
      </trkpt>
      <trkpt lat="46.65771" lon="6.03503">
        <ele>1031</ele>
        <time>2020-08-31T11:34:12Z</time>
      </trkpt>
      <trkpt lat="46.65764" lon="6.03499">
        <ele>1026</ele>
        <time>2020-08-31T11:34:47Z</time>
      </trkpt>
      <trkpt lat="46.65755" lon="6.03498">
        <ele>1024</ele>
        <time>2020-08-31T11:34:55Z</time>
      </trkpt>
      <trkpt lat="46.65746" lon="6.03486">
        <ele>1027</ele>
        <time>2020-08-31T11:35:12Z</time>
      </trkpt>
      <trkpt lat="46.65737" lon="6.03477">
        <ele>1029</ele>
        <time>2020-08-31T11:35:24Z</time>
      </trkpt>
      <trkpt lat="46.65733" lon="6.03465">
        <ele>1031</ele>
        <time>2020-08-31T11:35:39Z</time>
      </trkpt>
      <trkpt lat="46.65726" lon="6.03457">
        <ele>1033</ele>
        <time>2020-08-31T11:35:52Z</time>
      </trkpt>
      <trkpt lat="46.65717" lon="6.0345">
        <ele>1033</ele>
        <time>2020-08-31T11:36:02Z</time>
      </trkpt>
      <trkpt lat="46.65711" lon="6.03443">
        <ele>1033</ele>
        <time>2020-08-31T11:36:08Z</time>
      </trkpt>
      <trkpt lat="46.65706" lon="6.03437">
        <ele>1034</ele>
        <time>2020-08-31T11:36:13Z</time>
      </trkpt>
      <trkpt lat="46.65703" lon="6.0343">
        <ele>1034</ele>
        <time>2020-08-31T11:36:18Z</time>
      </trkpt>
      <trkpt lat="46.65697" lon="6.03426">
        <ele>1033</ele>
        <time>2020-08-31T11:36:23Z</time>
      </trkpt>
      <trkpt lat="46.65691" lon="6.03416">
        <ele>1033</ele>
        <time>2020-08-31T11:36:32Z</time>
      </trkpt>
      <trkpt lat="46.65687" lon="6.03405">
        <ele>1033</ele>
        <time>2020-08-31T11:36:39Z</time>
      </trkpt>
      <trkpt lat="46.65682" lon="6.03387">
        <ele>1032</ele>
        <time>2020-08-31T11:36:51Z</time>
      </trkpt>
      <trkpt lat="46.65677" lon="6.03381">
        <ele>1031</ele>
        <time>2020-08-31T11:36:57Z</time>
      </trkpt>
      <trkpt lat="46.65671" lon="6.03376">
        <ele>1031</ele>
        <time>2020-08-31T11:37:07Z</time>
      </trkpt>
      <trkpt lat="46.65667" lon="6.03359">
        <ele>1035</ele>
        <time>2020-08-31T11:37:27Z</time>
      </trkpt>
      <trkpt lat="46.65663" lon="6.03349">
        <ele>1035</ele>
        <time>2020-08-31T11:37:33Z</time>
      </trkpt>
      <trkpt lat="46.65658" lon="6.03344">
        <ele>1036</ele>
        <time>2020-08-31T11:37:39Z</time>
      </trkpt>
      <trkpt lat="46.6565" lon="6.0333">
        <ele>1036</ele>
        <time>2020-08-31T11:37:53Z</time>
      </trkpt>
      <trkpt lat="46.65648" lon="6.03318">
        <ele>1037</ele>
        <time>2020-08-31T11:37:59Z</time>
      </trkpt>
      <trkpt lat="46.65636" lon="6.03303">
        <ele>1038</ele>
        <time>2020-08-31T11:38:13Z</time>
      </trkpt>
      <trkpt lat="46.65629" lon="6.03289">
        <ele>1038</ele>
        <time>2020-08-31T11:38:21Z</time>
      </trkpt>
      <trkpt lat="46.65618" lon="6.03268">
        <ele>1035</ele>
        <time>2020-08-31T11:38:41Z</time>
      </trkpt>
      <trkpt lat="46.6561" lon="6.03262">
        <ele>1033</ele>
        <time>2020-08-31T11:38:54Z</time>
      </trkpt>
      <trkpt lat="46.65605" lon="6.03256">
        <ele>1032</ele>
        <time>2020-08-31T11:39:00Z</time>
      </trkpt>
      <trkpt lat="46.656" lon="6.03247">
        <ele>1031</ele>
        <time>2020-08-31T11:39:08Z</time>
      </trkpt>
      <trkpt lat="46.65588" lon="6.03217">
        <ele>1026</ele>
        <time>2020-08-31T11:39:39Z</time>
      </trkpt>
      <trkpt lat="46.65582" lon="6.03209">
        <ele>1024</ele>
        <time>2020-08-31T11:39:46Z</time>
      </trkpt>
      <trkpt lat="46.65573" lon="6.03208">
        <ele>1024</ele>
        <time>2020-08-31T11:39:51Z</time>
      </trkpt>
      <trkpt lat="46.65569" lon="6.03212">
        <ele>1025</ele>
        <time>2020-08-31T11:39:55Z</time>
      </trkpt>
      <trkpt lat="46.65564" lon="6.03213">
        <ele>1025</ele>
        <time>2020-08-31T11:40:00Z</time>
      </trkpt>
      <trkpt lat="46.65559" lon="6.03217">
        <ele>1024</ele>
        <time>2020-08-31T11:40:08Z</time>
      </trkpt>
      <trkpt lat="46.65554" lon="6.03223">
        <ele>1024</ele>
        <time>2020-08-31T11:40:14Z</time>
      </trkpt>
      <trkpt lat="46.65543" lon="6.03228">
        <ele>1022</ele>
        <time>2020-08-31T11:40:28Z</time>
      </trkpt>
      <trkpt lat="46.65537" lon="6.03222">
        <ele>1021</ele>
        <time>2020-08-31T11:40:35Z</time>
      </trkpt>
      <trkpt lat="46.65536" lon="6.03214">
        <ele>1020</ele>
        <time>2020-08-31T11:40:40Z</time>
      </trkpt>
      <trkpt lat="46.6553" lon="6.03206">
        <ele>1020</ele>
        <time>2020-08-31T11:40:48Z</time>
      </trkpt>
      <trkpt lat="46.65525" lon="6.03202">
        <ele>1019</ele>
        <time>2020-08-31T11:40:54Z</time>
      </trkpt>
      <trkpt lat="46.65517" lon="6.032">
        <ele>1015</ele>
        <time>2020-08-31T11:41:16Z</time>
      </trkpt>
      <trkpt lat="46.65513" lon="6.03192">
        <ele>1014</ele>
        <time>2020-08-31T11:41:22Z</time>
      </trkpt>
      <trkpt lat="46.65509" lon="6.03187">
        <ele>1013</ele>
        <time>2020-08-31T11:41:27Z</time>
      </trkpt>
      <trkpt lat="46.65505" lon="6.03181">
        <ele>1012</ele>
        <time>2020-08-31T11:41:35Z</time>
      </trkpt>
      <trkpt lat="46.65505" lon="6.03169">
        <ele>1011</ele>
        <time>2020-08-31T11:41:48Z</time>
      </trkpt>
      <trkpt lat="46.65511" lon="6.03169">
        <ele>1011</ele>
        <time>2020-08-31T11:42:00Z</time>
      </trkpt>
      <trkpt lat="46.65512" lon="6.03161">
        <ele>1012</ele>
        <time>2020-08-31T11:42:38Z</time>
      </trkpt>
      <trkpt lat="46.65513" lon="6.03142">
        <ele>1013</ele>
        <time>2020-08-31T11:42:57Z</time>
      </trkpt>
      <trkpt lat="46.65489" lon="6.03136">
        <ele>1016</ele>
        <time>2020-08-31T11:43:18Z</time>
      </trkpt>
      <trkpt lat="46.65484" lon="6.0313">
        <ele>1017</ele>
        <time>2020-08-31T11:43:25Z</time>
      </trkpt>
      <trkpt lat="46.6548" lon="6.03121">
        <ele>1018</ele>
        <time>2020-08-31T11:43:34Z</time>
      </trkpt>
      <trkpt lat="46.65478" lon="6.03098">
        <ele>1020</ele>
        <time>2020-08-31T11:43:52Z</time>
      </trkpt>
      <trkpt lat="46.6548" lon="6.03088">
        <ele>1021</ele>
        <time>2020-08-31T11:44:00Z</time>
      </trkpt>
      <trkpt lat="46.6548" lon="6.03065">
        <ele>1023</ele>
        <time>2020-08-31T11:44:16Z</time>
      </trkpt>
      <trkpt lat="46.65475" lon="6.03048">
        <ele>1025</ele>
        <time>2020-08-31T11:44:30Z</time>
      </trkpt>
      <trkpt lat="46.65476" lon="6.03039">
        <ele>1025</ele>
        <time>2020-08-31T11:44:36Z</time>
      </trkpt>
      <trkpt lat="46.65475" lon="6.03028">
        <ele>1027</ele>
        <time>2020-08-31T11:44:49Z</time>
      </trkpt>
      <trkpt lat="46.65477" lon="6.03013">
        <ele>1027</ele>
        <time>2020-08-31T11:45:00Z</time>
      </trkpt>
      <trkpt lat="46.65474" lon="6.03006">
        <ele>1026</ele>
        <time>2020-08-31T11:45:11Z</time>
      </trkpt>
      <trkpt lat="46.65468" lon="6.03003">
        <ele>1026</ele>
        <time>2020-08-31T11:45:48Z</time>
      </trkpt>
      <trkpt lat="46.65472" lon="6.03004">
        <ele>1026</ele>
        <time>2020-08-31T11:46:58Z</time>
      </trkpt>
      <trkpt lat="46.65468" lon="6.03006">
        <ele>1024</ele>
        <time>2020-08-31T11:49:57Z</time>
      </trkpt>
      <trkpt lat="46.65461" lon="6.03003">
        <ele>1023</ele>
        <time>2020-08-31T11:50:09Z</time>
      </trkpt>
      <trkpt lat="46.65457" lon="6.02996">
        <ele>1022</ele>
        <time>2020-08-31T11:50:54Z</time>
      </trkpt>
      <trkpt lat="46.6546" lon="6.02998">
        <ele>1021</ele>
        <time>2020-08-31T11:54:01Z</time>
      </trkpt>
      <trkpt lat="46.65463" lon="6.03004">
        <ele>1022</ele>
        <time>2020-08-31T11:54:25Z</time>
      </trkpt>
      <trkpt lat="46.65466" lon="6.03016">
        <ele>1021</ele>
        <time>2020-08-31T11:55:13Z</time>
      </trkpt>
      <trkpt lat="46.65471" lon="6.03008">
        <ele>1022</ele>
        <time>2020-08-31T11:55:49Z</time>
      </trkpt>
      <trkpt lat="46.65476" lon="6.0301">
        <ele>1023</ele>
        <time>2020-08-31T11:58:13Z</time>
      </trkpt>
      <trkpt lat="46.65477" lon="6.03019">
        <ele>1024</ele>
        <time>2020-08-31T11:59:13Z</time>
      </trkpt>
      <trkpt lat="46.65473" lon="6.03028">
        <ele>1024</ele>
        <time>2020-08-31T11:59:25Z</time>
      </trkpt>
      <trkpt lat="46.65469" lon="6.03036">
        <ele>1023</ele>
        <time>2020-08-31T11:59:32Z</time>
      </trkpt>
      <trkpt lat="46.65471" lon="6.03076">
        <ele>1020</ele>
        <time>2020-08-31T12:00:07Z</time>
      </trkpt>
      <trkpt lat="46.65469" lon="6.03123">
        <ele>1017</ele>
        <time>2020-08-31T12:00:37Z</time>
      </trkpt>
      <trkpt lat="46.65472" lon="6.03134">
        <ele>1015</ele>
        <time>2020-08-31T12:00:44Z</time>
      </trkpt>
      <trkpt lat="46.65474" lon="6.03139">
        <ele>1015</ele>
        <time>2020-08-31T12:00:47Z</time>
      </trkpt>
      <trkpt lat="46.65486" lon="6.03151">
        <ele>1014</ele>
        <time>2020-08-31T12:01:00Z</time>
      </trkpt>
      <trkpt lat="46.6549" lon="6.03153">
        <ele>1013</ele>
        <time>2020-08-31T12:01:04Z</time>
      </trkpt>
      <trkpt lat="46.65495" lon="6.03153">
        <ele>1013</ele>
        <time>2020-08-31T12:01:10Z</time>
      </trkpt>
      <trkpt lat="46.65507" lon="6.03154">
        <ele>1012</ele>
        <time>2020-08-31T12:01:18Z</time>
      </trkpt>
      <trkpt lat="46.65509" lon="6.03161">
        <ele>1011</ele>
        <time>2020-08-31T12:01:30Z</time>
      </trkpt>
      <trkpt lat="46.65503" lon="6.03161">
        <ele>1010</ele>
        <time>2020-08-31T12:01:37Z</time>
      </trkpt>
      <trkpt lat="46.65499" lon="6.03166">
        <ele>1010</ele>
        <time>2020-08-31T12:01:42Z</time>
      </trkpt>
      <trkpt lat="46.65494" lon="6.03168">
        <ele>1010</ele>
        <time>2020-08-31T12:01:47Z</time>
      </trkpt>
      <trkpt lat="46.65489" lon="6.03171">
        <ele>1009</ele>
        <time>2020-08-31T12:01:54Z</time>
      </trkpt>
      <trkpt lat="46.65482" lon="6.03176">
        <ele>1009</ele>
        <time>2020-08-31T12:02:00Z</time>
      </trkpt>
      <trkpt lat="46.65481" lon="6.03182">
        <ele>1008</ele>
        <time>2020-08-31T12:02:04Z</time>
      </trkpt>
      <trkpt lat="46.65478" lon="6.03185">
        <ele>1008</ele>
        <time>2020-08-31T12:02:07Z</time>
      </trkpt>
      <trkpt lat="46.65476" lon="6.03192">
        <ele>1008</ele>
        <time>2020-08-31T12:02:11Z</time>
      </trkpt>
      <trkpt lat="46.6547" lon="6.03209">
        <ele>1007</ele>
        <time>2020-08-31T12:02:21Z</time>
      </trkpt>
      <trkpt lat="46.65469" lon="6.03215">
        <ele>1006</ele>
        <time>2020-08-31T12:02:24Z</time>
      </trkpt>
      <trkpt lat="46.65469" lon="6.0323">
        <ele>1005</ele>
        <time>2020-08-31T12:02:35Z</time>
      </trkpt>
      <trkpt lat="46.65467" lon="6.03247">
        <ele>1004</ele>
        <time>2020-08-31T12:02:45Z</time>
      </trkpt>
      <trkpt lat="46.65468" lon="6.03253">
        <ele>1004</ele>
        <time>2020-08-31T12:02:48Z</time>
      </trkpt>
      <trkpt lat="46.65467" lon="6.0326">
        <ele>1003</ele>
        <time>2020-08-31T12:02:54Z</time>
      </trkpt>
      <trkpt lat="46.65469" lon="6.03278">
        <ele>1001</ele>
        <time>2020-08-31T12:03:04Z</time>
      </trkpt>
      <trkpt lat="46.65469" lon="6.03298">
        <ele>1000</ele>
        <time>2020-08-31T12:03:15Z</time>
      </trkpt>
      <trkpt lat="46.6547" lon="6.03305">
        <ele>999</ele>
        <time>2020-08-31T12:03:20Z</time>
      </trkpt>
      <trkpt lat="46.65468" lon="6.03324">
        <ele>998</ele>
        <time>2020-08-31T12:03:32Z</time>
      </trkpt>
      <trkpt lat="46.6547" lon="6.0333">
        <ele>998</ele>
        <time>2020-08-31T12:03:35Z</time>
      </trkpt>
      <trkpt lat="46.65473" lon="6.03335">
        <ele>997</ele>
        <time>2020-08-31T12:03:39Z</time>
      </trkpt>
      <trkpt lat="46.65475" lon="6.03346">
        <ele>995</ele>
        <time>2020-08-31T12:03:47Z</time>
      </trkpt>
      <trkpt lat="46.65478" lon="6.03351">
        <ele>995</ele>
        <time>2020-08-31T12:03:50Z</time>
      </trkpt>
      <trkpt lat="46.65479" lon="6.03356">
        <ele>995</ele>
        <time>2020-08-31T12:03:54Z</time>
      </trkpt>
      <trkpt lat="46.65483" lon="6.03376">
        <ele>994</ele>
        <time>2020-08-31T12:04:06Z</time>
      </trkpt>
      <trkpt lat="46.65484" lon="6.03381">
        <ele>994</ele>
        <time>2020-08-31T12:04:10Z</time>
      </trkpt>
      <trkpt lat="46.65486" lon="6.03389">
        <ele>993</ele>
        <time>2020-08-31T12:04:16Z</time>
      </trkpt>
      <trkpt lat="46.65488" lon="6.03401">
        <ele>993</ele>
        <time>2020-08-31T12:04:23Z</time>
      </trkpt>
      <trkpt lat="46.65497" lon="6.03431">
        <ele>990</ele>
        <time>2020-08-31T12:04:45Z</time>
      </trkpt>
      <trkpt lat="46.65503" lon="6.0344">
        <ele>989</ele>
        <time>2020-08-31T12:04:51Z</time>
      </trkpt>
      <trkpt lat="46.65505" lon="6.03449">
        <ele>988</ele>
        <time>2020-08-31T12:04:57Z</time>
      </trkpt>
      <trkpt lat="46.6551" lon="6.0346">
        <ele>987</ele>
        <time>2020-08-31T12:05:06Z</time>
      </trkpt>
      <trkpt lat="46.65518" lon="6.03505">
        <ele>984</ele>
        <time>2020-08-31T12:05:37Z</time>
      </trkpt>
      <trkpt lat="46.65517" lon="6.0353">
        <ele>982</ele>
        <time>2020-08-31T12:05:53Z</time>
      </trkpt>
      <trkpt lat="46.65518" lon="6.03557">
        <ele>981</ele>
        <time>2020-08-31T12:06:12Z</time>
      </trkpt>
      <trkpt lat="46.6551" lon="6.0357">
        <ele>980</ele>
        <time>2020-08-31T12:06:22Z</time>
      </trkpt>
      <trkpt lat="46.65505" lon="6.03573">
        <ele>979</ele>
        <time>2020-08-31T12:06:27Z</time>
      </trkpt>
      <trkpt lat="46.65502" lon="6.03577">
        <ele>978</ele>
        <time>2020-08-31T12:06:31Z</time>
      </trkpt>
      <trkpt lat="46.65479" lon="6.0359">
        <ele>974</ele>
        <time>2020-08-31T12:06:58Z</time>
      </trkpt>
      <trkpt lat="46.65474" lon="6.03597">
        <ele>974</ele>
        <time>2020-08-31T12:07:04Z</time>
      </trkpt>
      <trkpt lat="46.65465" lon="6.03604">
        <ele>974</ele>
        <time>2020-08-31T12:07:11Z</time>
      </trkpt>
      <trkpt lat="46.65456" lon="6.03607">
        <ele>973</ele>
        <time>2020-08-31T12:07:19Z</time>
      </trkpt>
      <trkpt lat="46.65448" lon="6.03605">
        <ele>972</ele>
        <time>2020-08-31T12:07:29Z</time>
      </trkpt>
      <trkpt lat="46.65434" lon="6.03607">
        <ele>970</ele>
        <time>2020-08-31T12:07:44Z</time>
      </trkpt>
      <trkpt lat="46.65427" lon="6.03613">
        <ele>969</ele>
        <time>2020-08-31T12:07:51Z</time>
      </trkpt>
      <trkpt lat="46.65423" lon="6.03613">
        <ele>968</ele>
        <time>2020-08-31T12:07:54Z</time>
      </trkpt>
      <trkpt lat="46.65415" lon="6.03618">
        <ele>968</ele>
        <time>2020-08-31T12:08:00Z</time>
      </trkpt>
      <trkpt lat="46.65406" lon="6.03632">
        <ele>966</ele>
        <time>2020-08-31T12:08:12Z</time>
      </trkpt>
      <trkpt lat="46.65395" lon="6.03639">
        <ele>965</ele>
        <time>2020-08-31T12:08:21Z</time>
      </trkpt>
      <trkpt lat="46.65389" lon="6.03647">
        <ele>964</ele>
        <time>2020-08-31T12:08:27Z</time>
      </trkpt>
      <trkpt lat="46.65385" lon="6.03646">
        <ele>964</ele>
        <time>2020-08-31T12:08:30Z</time>
      </trkpt>
      <trkpt lat="46.65367" lon="6.03662">
        <ele>962</ele>
        <time>2020-08-31T12:08:46Z</time>
      </trkpt>
      <trkpt lat="46.65362" lon="6.03671">
        <ele>962</ele>
        <time>2020-08-31T12:08:53Z</time>
      </trkpt>
      <trkpt lat="46.65359" lon="6.03678">
        <ele>962</ele>
        <time>2020-08-31T12:08:57Z</time>
      </trkpt>
      <trkpt lat="46.65355" lon="6.03684">
        <ele>962</ele>
        <time>2020-08-31T12:09:02Z</time>
      </trkpt>
      <trkpt lat="46.65351" lon="6.03692">
        <ele>961</ele>
        <time>2020-08-31T12:09:08Z</time>
      </trkpt>
      <trkpt lat="46.65346" lon="6.03697">
        <ele>960</ele>
        <time>2020-08-31T12:09:14Z</time>
      </trkpt>
      <trkpt lat="46.65343" lon="6.03705">
        <ele>960</ele>
        <time>2020-08-31T12:09:19Z</time>
      </trkpt>
      <trkpt lat="46.6534" lon="6.0371">
        <ele>959</ele>
        <time>2020-08-31T12:09:25Z</time>
      </trkpt>
      <trkpt lat="46.65309" lon="6.03729">
        <ele>955</ele>
        <time>2020-08-31T12:09:57Z</time>
      </trkpt>
      <trkpt lat="46.65306" lon="6.03733">
        <ele>954</ele>
        <time>2020-08-31T12:10:01Z</time>
      </trkpt>
      <trkpt lat="46.65302" lon="6.03735">
        <ele>954</ele>
        <time>2020-08-31T12:10:04Z</time>
      </trkpt>
      <trkpt lat="46.65299" lon="6.03738">
        <ele>953</ele>
        <time>2020-08-31T12:10:08Z</time>
      </trkpt>
      <trkpt lat="46.65291" lon="6.03751">
        <ele>952</ele>
        <time>2020-08-31T12:10:18Z</time>
      </trkpt>
      <trkpt lat="46.65288" lon="6.03755">
        <ele>952</ele>
        <time>2020-08-31T12:10:22Z</time>
      </trkpt>
      <trkpt lat="46.65282" lon="6.03763">
        <ele>951</ele>
        <time>2020-08-31T12:10:29Z</time>
      </trkpt>
      <trkpt lat="46.65277" lon="6.03767">
        <ele>951</ele>
        <time>2020-08-31T12:10:37Z</time>
      </trkpt>
      <trkpt lat="46.65259" lon="6.03782">
        <ele>948</ele>
        <time>2020-08-31T12:10:57Z</time>
      </trkpt>
      <trkpt lat="46.65256" lon="6.03786">
        <ele>948</ele>
        <time>2020-08-31T12:11:00Z</time>
      </trkpt>
      <trkpt lat="46.65253" lon="6.03789">
        <ele>948</ele>
        <time>2020-08-31T12:11:03Z</time>
      </trkpt>
      <trkpt lat="46.65236" lon="6.03801">
        <ele>946</ele>
        <time>2020-08-31T12:11:21Z</time>
      </trkpt>
      <trkpt lat="46.65232" lon="6.03805">
        <ele>945</ele>
        <time>2020-08-31T12:11:25Z</time>
      </trkpt>
      <trkpt lat="46.6523" lon="6.03809">
        <ele>945</ele>
        <time>2020-08-31T12:11:28Z</time>
      </trkpt>
      <trkpt lat="46.65226" lon="6.03813">
        <ele>944</ele>
        <time>2020-08-31T12:11:31Z</time>
      </trkpt>
      <trkpt lat="46.65208" lon="6.03863">
        <ele>940</ele>
        <time>2020-08-31T12:12:04Z</time>
      </trkpt>
      <trkpt lat="46.65203" lon="6.03877">
        <ele>939</ele>
        <time>2020-08-31T12:12:15Z</time>
      </trkpt>
      <trkpt lat="46.65201" lon="6.03886">
        <ele>938</ele>
        <time>2020-08-31T12:12:21Z</time>
      </trkpt>
      <trkpt lat="46.65202" lon="6.03903">
        <ele>937</ele>
        <time>2020-08-31T12:12:33Z</time>
      </trkpt>
      <trkpt lat="46.652" lon="6.03911">
        <ele>937</ele>
        <time>2020-08-31T12:12:38Z</time>
      </trkpt>
      <trkpt lat="46.65203" lon="6.03919">
        <ele>936</ele>
        <time>2020-08-31T12:12:58Z</time>
      </trkpt>
      <trkpt lat="46.65216" lon="6.03941">
        <ele>935</ele>
        <time>2020-08-31T12:13:12Z</time>
      </trkpt>
      <trkpt lat="46.65231" lon="6.03961">
        <ele>936</ele>
        <time>2020-08-31T12:13:27Z</time>
      </trkpt>
      <trkpt lat="46.65236" lon="6.03965">
        <ele>936</ele>
        <time>2020-08-31T12:13:33Z</time>
      </trkpt>
      <trkpt lat="46.65255" lon="6.03997">
        <ele>936</ele>
        <time>2020-08-31T12:13:59Z</time>
      </trkpt>
      <trkpt lat="46.65267" lon="6.04022">
        <ele>938</ele>
        <time>2020-08-31T12:14:21Z</time>
      </trkpt>
      <trkpt lat="46.65268" lon="6.04027">
        <ele>938</ele>
        <time>2020-08-31T12:14:25Z</time>
      </trkpt>
      <trkpt lat="46.6528" lon="6.04046">
        <ele>937</ele>
        <time>2020-08-31T12:14:41Z</time>
      </trkpt>
      <trkpt lat="46.65284" lon="6.04049">
        <ele>936</ele>
        <time>2020-08-31T12:14:45Z</time>
      </trkpt>
      <trkpt lat="46.65287" lon="6.04053">
        <ele>936</ele>
        <time>2020-08-31T12:14:49Z</time>
      </trkpt>
      <trkpt lat="46.65291" lon="6.04056">
        <ele>936</ele>
        <time>2020-08-31T12:14:52Z</time>
      </trkpt>
      <trkpt lat="46.65295" lon="6.04059">
        <ele>936</ele>
        <time>2020-08-31T12:14:55Z</time>
      </trkpt>
      <trkpt lat="46.65321" lon="6.04089">
        <ele>938</ele>
        <time>2020-08-31T12:15:22Z</time>
      </trkpt>
      <trkpt lat="46.65326" lon="6.04101">
        <ele>939</ele>
        <time>2020-08-31T12:15:34Z</time>
      </trkpt>
      <trkpt lat="46.65336" lon="6.04113">
        <ele>940</ele>
        <time>2020-08-31T12:15:46Z</time>
      </trkpt>
      <trkpt lat="46.6534" lon="6.04114">
        <ele>940</ele>
        <time>2020-08-31T12:15:49Z</time>
      </trkpt>
      <trkpt lat="46.65343" lon="6.04119">
        <ele>940</ele>
        <time>2020-08-31T12:15:52Z</time>
      </trkpt>
      <trkpt lat="46.65347" lon="6.04122">
        <ele>940</ele>
        <time>2020-08-31T12:15:56Z</time>
      </trkpt>
      <trkpt lat="46.65368" lon="6.04154">
        <ele>942</ele>
        <time>2020-08-31T12:16:37Z</time>
      </trkpt>
      <trkpt lat="46.65373" lon="6.04155">
        <ele>942</ele>
        <time>2020-08-31T12:16:43Z</time>
      </trkpt>
      <trkpt lat="46.65378" lon="6.04155">
        <ele>943</ele>
        <time>2020-08-31T12:16:49Z</time>
      </trkpt>
      <trkpt lat="46.65378" lon="6.04161">
        <ele>943</ele>
        <time>2020-08-31T12:17:13Z</time>
      </trkpt>
      <trkpt lat="46.65381" lon="6.0417">
        <ele>944</ele>
        <time>2020-08-31T12:17:31Z</time>
      </trkpt>
      <trkpt lat="46.65382" lon="6.04174">
        <ele>944</ele>
        <time>2020-08-31T12:17:35Z</time>
      </trkpt>
      <trkpt lat="46.65382" lon="6.0418">
        <ele>944</ele>
        <time>2020-08-31T12:17:39Z</time>
      </trkpt>
      <trkpt lat="46.65384" lon="6.04185">
        <ele>944</ele>
        <time>2020-08-31T12:17:42Z</time>
      </trkpt>
      <trkpt lat="46.6539" lon="6.04192">
        <ele>945</ele>
        <time>2020-08-31T12:17:49Z</time>
      </trkpt>
      <trkpt lat="46.65401" lon="6.04217">
        <ele>947</ele>
        <time>2020-08-31T12:18:07Z</time>
      </trkpt>
      <trkpt lat="46.65402" lon="6.04222">
        <ele>947</ele>
        <time>2020-08-31T12:18:11Z</time>
      </trkpt>
      <trkpt lat="46.65407" lon="6.04232">
        <ele>947</ele>
        <time>2020-08-31T12:18:17Z</time>
      </trkpt>
      <trkpt lat="46.65412" lon="6.04248">
        <ele>948</ele>
        <time>2020-08-31T12:18:26Z</time>
      </trkpt>
      <trkpt lat="46.65418" lon="6.04259">
        <ele>948</ele>
        <time>2020-08-31T12:18:37Z</time>
      </trkpt>
      <trkpt lat="46.65421" lon="6.04262">
        <ele>948</ele>
        <time>2020-08-31T12:18:40Z</time>
      </trkpt>
      <trkpt lat="46.65439" lon="6.04294">
        <ele>949</ele>
        <time>2020-08-31T12:19:04Z</time>
      </trkpt>
      <trkpt lat="46.65446" lon="6.04297">
        <ele>948</ele>
        <time>2020-08-31T12:19:14Z</time>
      </trkpt>
      <trkpt lat="46.65449" lon="6.04296">
        <ele>948</ele>
        <time>2020-08-31T12:19:17Z</time>
      </trkpt>
      <trkpt lat="46.65453" lon="6.04303">
        <ele>949</ele>
        <time>2020-08-31T12:19:35Z</time>
      </trkpt>
      <trkpt lat="46.65456" lon="6.0431">
        <ele>948</ele>
        <time>2020-08-31T12:19:48Z</time>
      </trkpt>
      <trkpt lat="46.65457" lon="6.04316">
        <ele>948</ele>
        <time>2020-08-31T12:19:52Z</time>
      </trkpt>
      <trkpt lat="46.65461" lon="6.04329">
        <ele>947</ele>
        <time>2020-08-31T12:20:01Z</time>
      </trkpt>
      <trkpt lat="46.65465" lon="6.04336">
        <ele>947</ele>
        <time>2020-08-31T12:20:06Z</time>
      </trkpt>
      <trkpt lat="46.65466" lon="6.04342">
        <ele>947</ele>
        <time>2020-08-31T12:20:10Z</time>
      </trkpt>
      <trkpt lat="46.65465" lon="6.04348">
        <ele>946</ele>
        <time>2020-08-31T12:20:14Z</time>
      </trkpt>
      <trkpt lat="46.65469" lon="6.04365">
        <ele>945</ele>
        <time>2020-08-31T12:20:25Z</time>
      </trkpt>
      <trkpt lat="46.6547" lon="6.0437">
        <ele>945</ele>
        <time>2020-08-31T12:20:27Z</time>
      </trkpt>
      <trkpt lat="46.65472" lon="6.0439">
        <ele>944</ele>
        <time>2020-08-31T12:20:39Z</time>
      </trkpt>
      <trkpt lat="46.65475" lon="6.04408">
        <ele>944</ele>
        <time>2020-08-31T12:20:51Z</time>
      </trkpt>
      <trkpt lat="46.65477" lon="6.04428">
        <ele>944</ele>
        <time>2020-08-31T12:21:07Z</time>
      </trkpt>
      <trkpt lat="46.65477" lon="6.04434">
        <ele>944</ele>
        <time>2020-08-31T12:21:10Z</time>
      </trkpt>
      <trkpt lat="46.65477" lon="6.04457">
        <ele>944</ele>
        <time>2020-08-31T12:21:27Z</time>
      </trkpt>
      <trkpt lat="46.65471" lon="6.04461">
        <ele>944</ele>
        <time>2020-08-31T12:21:41Z</time>
      </trkpt>
      <trkpt lat="46.65462" lon="6.04466">
        <ele>945</ele>
        <time>2020-08-31T12:21:51Z</time>
      </trkpt>
      <trkpt lat="46.65433" lon="6.0449">
        <ele>946</ele>
        <time>2020-08-31T12:22:24Z</time>
      </trkpt>
      <trkpt lat="46.65427" lon="6.04497">
        <ele>947</ele>
        <time>2020-08-31T12:22:34Z</time>
      </trkpt>
      <trkpt lat="46.65426" lon="6.04503">
        <ele>948</ele>
        <time>2020-08-31T12:22:38Z</time>
      </trkpt>
      <trkpt lat="46.6544" lon="6.04538">
        <ele>948</ele>
        <time>2020-08-31T12:23:03Z</time>
      </trkpt>
      <trkpt lat="46.65456" lon="6.04568">
        <ele>946</ele>
        <time>2020-08-31T12:23:23Z</time>
      </trkpt>
      <trkpt lat="46.65466" lon="6.04582">
        <ele>944</ele>
        <time>2020-08-31T12:23:38Z</time>
      </trkpt>
      <trkpt lat="46.65473" lon="6.04596">
        <ele>943</ele>
        <time>2020-08-31T12:23:50Z</time>
      </trkpt>
      <trkpt lat="46.6547" lon="6.04612">
        <ele>941</ele>
        <time>2020-08-31T12:24:03Z</time>
      </trkpt>
      <trkpt lat="46.65469" lon="6.04621">
        <ele>939</ele>
        <time>2020-08-31T12:24:09Z</time>
      </trkpt>
      <trkpt lat="46.65465" lon="6.04638">
        <ele>938</ele>
        <time>2020-08-31T12:24:20Z</time>
      </trkpt>
      <trkpt lat="46.65453" lon="6.04656">
        <ele>936</ele>
        <time>2020-08-31T12:24:36Z</time>
      </trkpt>
      <trkpt lat="46.65448" lon="6.0466">
        <ele>936</ele>
        <time>2020-08-31T12:24:40Z</time>
      </trkpt>
      <trkpt lat="46.65443" lon="6.04673">
        <ele>935</ele>
        <time>2020-08-31T12:24:55Z</time>
      </trkpt>
      <trkpt lat="46.6544" lon="6.0471">
        <ele>936</ele>
        <time>2020-08-31T12:25:13Z</time>
      </trkpt>
      <trkpt lat="46.65448" lon="6.04747">
        <ele>937</ele>
        <time>2020-08-31T12:25:33Z</time>
      </trkpt>
      <trkpt lat="46.65445" lon="6.04755">
        <ele>937</ele>
        <time>2020-08-31T12:25:37Z</time>
      </trkpt>
      <trkpt lat="46.65443" lon="6.04772">
        <ele>937</ele>
        <time>2020-08-31T12:25:48Z</time>
      </trkpt>
      <trkpt lat="46.65445" lon="6.04789">
        <ele>939</ele>
        <time>2020-08-31T12:26:02Z</time>
      </trkpt>
      <trkpt lat="46.65456" lon="6.04823">
        <ele>942</ele>
        <time>2020-08-31T12:26:25Z</time>
      </trkpt>
      <trkpt lat="46.6546" lon="6.0484">
        <ele>943</ele>
        <time>2020-08-31T12:26:34Z</time>
      </trkpt>
      <trkpt lat="46.65466" lon="6.04855">
        <ele>944</ele>
        <time>2020-08-31T12:26:44Z</time>
      </trkpt>
      <trkpt lat="46.65469" lon="6.04864">
        <ele>943</ele>
        <time>2020-08-31T12:26:52Z</time>
      </trkpt>
      <trkpt lat="46.65469" lon="6.04882">
        <ele>943</ele>
        <time>2020-08-31T12:27:00Z</time>
      </trkpt>
      <trkpt lat="46.6549" lon="6.04917">
        <ele>941</ele>
        <time>2020-08-31T12:27:26Z</time>
      </trkpt>
      <trkpt lat="46.65502" lon="6.0493">
        <ele>940</ele>
        <time>2020-08-31T12:27:39Z</time>
      </trkpt>
      <trkpt lat="46.65507" lon="6.04931">
        <ele>940</ele>
        <time>2020-08-31T12:27:44Z</time>
      </trkpt>
      <trkpt lat="46.65513" lon="6.04936">
        <ele>939</ele>
        <time>2020-08-31T12:27:48Z</time>
      </trkpt>
      <trkpt lat="46.65523" lon="6.04941">
        <ele>939</ele>
        <time>2020-08-31T12:28:00Z</time>
      </trkpt>
      <trkpt lat="46.65527" lon="6.04947">
        <ele>938</ele>
        <time>2020-08-31T12:28:06Z</time>
      </trkpt>
      <trkpt lat="46.6553" lon="6.04949">
        <ele>938</ele>
        <time>2020-08-31T12:28:11Z</time>
      </trkpt>
      <trkpt lat="46.6553" lon="6.04958">
        <ele>938</ele>
        <time>2020-08-31T12:28:15Z</time>
      </trkpt>
      <trkpt lat="46.6553" lon="6.04968">
        <ele>937</ele>
        <time>2020-08-31T12:28:26Z</time>
      </trkpt>
      <trkpt lat="46.65532" lon="6.04979">
        <ele>937</ele>
        <time>2020-08-31T12:28:40Z</time>
      </trkpt>
      <trkpt lat="46.65529" lon="6.05016">
        <ele>936</ele>
        <time>2020-08-31T12:29:02Z</time>
      </trkpt>
      <trkpt lat="46.65529" lon="6.05025">
        <ele>936</ele>
        <time>2020-08-31T12:29:05Z</time>
      </trkpt>
      <trkpt lat="46.65534" lon="6.05086">
        <ele>933</ele>
        <time>2020-08-31T12:29:38Z</time>
      </trkpt>
      <trkpt lat="46.65536" lon="6.05108">
        <ele>932</ele>
        <time>2020-08-31T12:29:51Z</time>
      </trkpt>
      <trkpt lat="46.6554" lon="6.05117">
        <ele>932</ele>
        <time>2020-08-31T12:30:05Z</time>
      </trkpt>
      <trkpt lat="46.65535" lon="6.05153">
        <ele>932</ele>
        <time>2020-08-31T12:30:46Z</time>
      </trkpt>
      <trkpt lat="46.65534" lon="6.05162">
        <ele>932</ele>
        <time>2020-08-31T12:30:51Z</time>
      </trkpt>
      <trkpt lat="46.65538" lon="6.05174">
        <ele>932</ele>
        <time>2020-08-31T12:31:01Z</time>
      </trkpt>
      <trkpt lat="46.6554" lon="6.05201">
        <ele>931</ele>
        <time>2020-08-31T12:31:18Z</time>
      </trkpt>
      <trkpt lat="46.65542" lon="6.05206">
        <ele>931</ele>
        <time>2020-08-31T12:31:21Z</time>
      </trkpt>
      <trkpt lat="46.65542" lon="6.05219">
        <ele>931</ele>
        <time>2020-08-31T12:31:30Z</time>
      </trkpt>
      <trkpt lat="46.65544" lon="6.05225">
        <ele>930</ele>
        <time>2020-08-31T12:31:34Z</time>
      </trkpt>
      <trkpt lat="46.65544" lon="6.05232">
        <ele>930</ele>
        <time>2020-08-31T12:31:41Z</time>
      </trkpt>
      <trkpt lat="46.65546" lon="6.05238">
        <ele>930</ele>
        <time>2020-08-31T12:31:45Z</time>
      </trkpt>
      <trkpt lat="46.65549" lon="6.05252">
        <ele>930</ele>
        <time>2020-08-31T12:31:55Z</time>
      </trkpt>
      <trkpt lat="46.65552" lon="6.05256">
        <ele>930</ele>
        <time>2020-08-31T12:31:59Z</time>
      </trkpt>
      <trkpt lat="46.65561" lon="6.05275">
        <ele>929</ele>
        <time>2020-08-31T12:32:22Z</time>
      </trkpt>
      <trkpt lat="46.65563" lon="6.05283">
        <ele>928</ele>
        <time>2020-08-31T12:32:28Z</time>
      </trkpt>
      <trkpt lat="46.65578" lon="6.05303">
        <ele>928</ele>
        <time>2020-08-31T12:32:52Z</time>
      </trkpt>
      <trkpt lat="46.65585" lon="6.05309">
        <ele>927</ele>
        <time>2020-08-31T12:33:03Z</time>
      </trkpt>
      <trkpt lat="46.65588" lon="6.05315">
        <ele>926</ele>
        <time>2020-08-31T12:33:45Z</time>
      </trkpt>
      <trkpt lat="46.65587" lon="6.05325">
        <ele>925</ele>
        <time>2020-08-31T12:34:09Z</time>
      </trkpt>
      <trkpt lat="46.6559" lon="6.05333">
        <ele>924</ele>
        <time>2020-08-31T12:34:17Z</time>
      </trkpt>
      <trkpt lat="46.65589" lon="6.05343">
        <ele>923</ele>
        <time>2020-08-31T12:34:23Z</time>
      </trkpt>
      <trkpt lat="46.6559" lon="6.05348">
        <ele>923</ele>
        <time>2020-08-31T12:34:27Z</time>
      </trkpt>
      <trkpt lat="46.6559" lon="6.05363">
        <ele>921</ele>
        <time>2020-08-31T12:34:37Z</time>
      </trkpt>
      <trkpt lat="46.65596" lon="6.0539">
        <ele>920</ele>
        <time>2020-08-31T12:34:55Z</time>
      </trkpt>
      <trkpt lat="46.65596" lon="6.05409">
        <ele>919</ele>
        <time>2020-08-31T12:35:17Z</time>
      </trkpt>
      <trkpt lat="46.65597" lon="6.05418">
        <ele>918</ele>
        <time>2020-08-31T12:35:27Z</time>
      </trkpt>
      <trkpt lat="46.65598" lon="6.05424">
        <ele>918</ele>
        <time>2020-08-31T12:35:37Z</time>
      </trkpt>
      <trkpt lat="46.65601" lon="6.05426">
        <ele>918</ele>
        <time>2020-08-31T12:35:53Z</time>
      </trkpt>
      <trkpt lat="46.65611" lon="6.05433">
        <ele>916</ele>
        <time>2020-08-31T12:37:18Z</time>
      </trkpt>
      <trkpt lat="46.65612" lon="6.0544">
        <ele>914</ele>
        <time>2020-08-31T12:37:30Z</time>
      </trkpt>
      <trkpt lat="46.65616" lon="6.05449">
        <ele>913</ele>
        <time>2020-08-31T12:37:36Z</time>
      </trkpt>
      <trkpt lat="46.65622" lon="6.05454">
        <ele>912</ele>
        <time>2020-08-31T12:37:42Z</time>
      </trkpt>
      <trkpt lat="46.65628" lon="6.05457">
        <ele>910</ele>
        <time>2020-08-31T12:37:56Z</time>
      </trkpt>
      <trkpt lat="46.65626" lon="6.05466">
        <ele>910</ele>
        <time>2020-08-31T12:38:38Z</time>
      </trkpt>
      <trkpt lat="46.65624" lon="6.0547">
        <ele>910</ele>
        <time>2020-08-31T12:38:39Z</time>
      </trkpt>
      <trkpt lat="46.6562" lon="6.05491">
        <ele>909</ele>
        <time>2020-08-31T12:38:49Z</time>
      </trkpt>
      <trkpt lat="46.65614" lon="6.0551">
        <ele>908</ele>
        <time>2020-08-31T12:39:04Z</time>
      </trkpt>
      <trkpt lat="46.65608" lon="6.05517">
        <ele>907</ele>
        <time>2020-08-31T12:39:12Z</time>
      </trkpt>
      <trkpt lat="46.65603" lon="6.05528">
        <ele>907</ele>
        <time>2020-08-31T12:39:22Z</time>
      </trkpt>
      <trkpt lat="46.65593" lon="6.05547">
        <ele>906</ele>
        <time>2020-08-31T12:39:37Z</time>
      </trkpt>
      <trkpt lat="46.65593" lon="6.05558">
        <ele>906</ele>
        <time>2020-08-31T12:40:05Z</time>
      </trkpt>
      <trkpt lat="46.65587" lon="6.05579">
        <ele>906</ele>
        <time>2020-08-31T12:40:27Z</time>
      </trkpt>
      <trkpt lat="46.65586" lon="6.05586">
        <ele>906</ele>
        <time>2020-08-31T12:40:32Z</time>
      </trkpt>
      <trkpt lat="46.65581" lon="6.05591">
        <ele>905</ele>
        <time>2020-08-31T12:40:41Z</time>
      </trkpt>
      <trkpt lat="46.65573" lon="6.056">
        <ele>905</ele>
        <time>2020-08-31T12:40:50Z</time>
      </trkpt>
      <trkpt lat="46.65565" lon="6.05606">
        <ele>904</ele>
        <time>2020-08-31T12:41:00Z</time>
      </trkpt>
      <trkpt lat="46.65562" lon="6.05612">
        <ele>904</ele>
        <time>2020-08-31T12:41:04Z</time>
      </trkpt>
      <trkpt lat="46.65564" lon="6.0562">
        <ele>904</ele>
        <time>2020-08-31T12:41:09Z</time>
      </trkpt>
      <trkpt lat="46.65542" lon="6.05635">
        <ele>902</ele>
        <time>2020-08-31T12:41:44Z</time>
      </trkpt>
      <trkpt lat="46.65538" lon="6.0564">
        <ele>902</ele>
        <time>2020-08-31T12:41:50Z</time>
      </trkpt>
      <trkpt lat="46.65529" lon="6.05643">
        <ele>901</ele>
        <time>2020-08-31T12:42:01Z</time>
      </trkpt>
      <trkpt lat="46.65525" lon="6.0565">
        <ele>900</ele>
        <time>2020-08-31T12:42:08Z</time>
      </trkpt>
      <trkpt lat="46.65521" lon="6.05655">
        <ele>899</ele>
        <time>2020-08-31T12:42:13Z</time>
      </trkpt>
      <trkpt lat="46.65492" lon="6.05681">
        <ele>896</ele>
        <time>2020-08-31T12:42:46Z</time>
      </trkpt>
      <trkpt lat="46.65482" lon="6.05691">
        <ele>895</ele>
        <time>2020-08-31T12:42:59Z</time>
      </trkpt>
      <trkpt lat="46.65473" lon="6.05692">
        <ele>894</ele>
        <time>2020-08-31T12:43:06Z</time>
      </trkpt>
      <trkpt lat="46.6547" lon="6.05693">
        <ele>894</ele>
        <time>2020-08-31T12:43:09Z</time>
      </trkpt>
      <trkpt lat="46.65465" lon="6.05693">
        <ele>894</ele>
        <time>2020-08-31T12:43:12Z</time>
      </trkpt>
      <trkpt lat="46.65463" lon="6.05699">
        <ele>894</ele>
        <time>2020-08-31T12:43:16Z</time>
      </trkpt>
      <trkpt lat="46.65442" lon="6.05713">
        <ele>893</ele>
        <time>2020-08-31T12:43:39Z</time>
      </trkpt>
      <trkpt lat="46.65429" lon="6.05716">
        <ele>892</ele>
        <time>2020-08-31T12:43:50Z</time>
      </trkpt>
      <trkpt lat="46.65424" lon="6.05721">
        <ele>892</ele>
        <time>2020-08-31T12:43:55Z</time>
      </trkpt>
      <trkpt lat="46.6542" lon="6.05728">
        <ele>892</ele>
        <time>2020-08-31T12:44:00Z</time>
      </trkpt>
      <trkpt lat="46.65421" lon="6.05735">
        <ele>893</ele>
        <time>2020-08-31T12:44:11Z</time>
      </trkpt>
      <trkpt lat="46.65423" lon="6.05769">
        <ele>890</ele>
        <time>2020-08-31T12:45:08Z</time>
      </trkpt>
      <trkpt lat="46.65431" lon="6.05782">
        <ele>889</ele>
        <time>2020-08-31T12:45:22Z</time>
      </trkpt>
      <trkpt lat="46.65437" lon="6.05788">
        <ele>889</ele>
        <time>2020-08-31T12:45:30Z</time>
      </trkpt>
      <trkpt lat="46.65454" lon="6.05808">
        <ele>889</ele>
        <time>2020-08-31T12:45:48Z</time>
      </trkpt>
      <trkpt lat="46.6546" lon="6.05817">
        <ele>889</ele>
        <time>2020-08-31T12:45:57Z</time>
      </trkpt>
      <trkpt lat="46.65467" lon="6.05819">
        <ele>889</ele>
        <time>2020-08-31T12:46:08Z</time>
      </trkpt>
      <trkpt lat="46.65496" lon="6.05835">
        <ele>886</ele>
        <time>2020-08-31T12:46:40Z</time>
      </trkpt>
      <trkpt lat="46.65537" lon="6.05866">
        <ele>884</ele>
        <time>2020-08-31T12:47:28Z</time>
      </trkpt>
      <trkpt lat="46.65551" lon="6.05883">
        <ele>884</ele>
        <time>2020-08-31T12:47:46Z</time>
      </trkpt>
      <trkpt lat="46.6556" lon="6.05895">
        <ele>885</ele>
        <time>2020-08-31T12:48:03Z</time>
      </trkpt>
      <trkpt lat="46.65561" lon="6.05904">
        <ele>886</ele>
        <time>2020-08-31T12:48:11Z</time>
      </trkpt>
      <trkpt lat="46.6558" lon="6.05935">
        <ele>886</ele>
        <time>2020-08-31T12:48:39Z</time>
      </trkpt>
      <trkpt lat="46.65585" lon="6.05939">
        <ele>886</ele>
        <time>2020-08-31T12:48:44Z</time>
      </trkpt>
      <trkpt lat="46.65604" lon="6.05984">
        <ele>885</ele>
        <time>2020-08-31T12:49:13Z</time>
      </trkpt>
      <trkpt lat="46.65605" lon="6.05994">
        <ele>885</ele>
        <time>2020-08-31T12:49:21Z</time>
      </trkpt>
      <trkpt lat="46.65616" lon="6.06028">
        <ele>887</ele>
        <time>2020-08-31T12:49:52Z</time>
      </trkpt>
      <trkpt lat="46.65618" lon="6.06037">
        <ele>887</ele>
        <time>2020-08-31T12:50:13Z</time>
      </trkpt>
      <trkpt lat="46.65619" lon="6.06046">
        <ele>888</ele>
        <time>2020-08-31T12:50:19Z</time>
      </trkpt>
      <trkpt lat="46.65623" lon="6.06066">
        <ele>887</ele>
        <time>2020-08-31T12:50:34Z</time>
      </trkpt>
      <trkpt lat="46.65621" lon="6.06085">
        <ele>887</ele>
        <time>2020-08-31T12:50:46Z</time>
      </trkpt>
      <trkpt lat="46.65618" lon="6.06092">
        <ele>886</ele>
        <time>2020-08-31T12:50:55Z</time>
      </trkpt>
      <trkpt lat="46.65615" lon="6.06102">
        <ele>885</ele>
        <time>2020-08-31T12:51:18Z</time>
      </trkpt>
      <trkpt lat="46.65612" lon="6.06108">
        <ele>884</ele>
        <time>2020-08-31T12:51:24Z</time>
      </trkpt>
      <trkpt lat="46.65601" lon="6.06113">
        <ele>881</ele>
        <time>2020-08-31T12:51:39Z</time>
      </trkpt>
      <trkpt lat="46.65591" lon="6.06112">
        <ele>879</ele>
        <time>2020-08-31T12:51:53Z</time>
      </trkpt>
      <trkpt lat="46.65583" lon="6.06115">
        <ele>878</ele>
        <time>2020-08-31T12:52:04Z</time>
      </trkpt>
      <trkpt lat="46.65579" lon="6.06119">
        <ele>877</ele>
        <time>2020-08-31T12:52:09Z</time>
      </trkpt>
      <trkpt lat="46.65573" lon="6.06121">
        <ele>877</ele>
        <time>2020-08-31T12:52:15Z</time>
      </trkpt>
      <trkpt lat="46.65569" lon="6.06121">
        <ele>877</ele>
        <time>2020-08-31T12:52:19Z</time>
      </trkpt>
      <trkpt lat="46.65563" lon="6.06125">
        <ele>876</ele>
        <time>2020-08-31T12:52:26Z</time>
      </trkpt>
      <trkpt lat="46.65558" lon="6.06124">
        <ele>876</ele>
        <time>2020-08-31T12:52:29Z</time>
      </trkpt>
      <trkpt lat="46.6555" lon="6.06126">
        <ele>875</ele>
        <time>2020-08-31T12:52:37Z</time>
      </trkpt>
      <trkpt lat="46.65543" lon="6.06131">
        <ele>875</ele>
        <time>2020-08-31T12:52:43Z</time>
      </trkpt>
      <trkpt lat="46.65541" lon="6.06136">
        <ele>875</ele>
        <time>2020-08-31T12:52:46Z</time>
      </trkpt>
      <trkpt lat="46.65538" lon="6.06139">
        <ele>875</ele>
        <time>2020-08-31T12:52:50Z</time>
      </trkpt>
      <trkpt lat="46.65531" lon="6.06154">
        <ele>875</ele>
        <time>2020-08-31T12:53:00Z</time>
      </trkpt>
      <trkpt lat="46.65529" lon="6.0616">
        <ele>875</ele>
        <time>2020-08-31T12:53:03Z</time>
      </trkpt>
      <trkpt lat="46.65527" lon="6.0617">
        <ele>875</ele>
        <time>2020-08-31T12:53:11Z</time>
      </trkpt>
      <trkpt lat="46.65519" lon="6.06176">
        <ele>875</ele>
        <time>2020-08-31T12:53:25Z</time>
      </trkpt>
      <trkpt lat="46.6551" lon="6.06184">
        <ele>874</ele>
        <time>2020-08-31T12:53:37Z</time>
      </trkpt>
      <trkpt lat="46.65506" lon="6.0619">
        <ele>873</ele>
        <time>2020-08-31T12:53:43Z</time>
      </trkpt>
      <trkpt lat="46.655" lon="6.06191">
        <ele>872</ele>
        <time>2020-08-31T12:53:48Z</time>
      </trkpt>
      <trkpt lat="46.65466" lon="6.06218">
        <ele>870</ele>
        <time>2020-08-31T12:54:21Z</time>
      </trkpt>
      <trkpt lat="46.65461" lon="6.06222">
        <ele>870</ele>
        <time>2020-08-31T12:54:26Z</time>
      </trkpt>
      <trkpt lat="46.65457" lon="6.06228">
        <ele>869</ele>
        <time>2020-08-31T12:54:31Z</time>
      </trkpt>
      <trkpt lat="46.65451" lon="6.06231">
        <ele>869</ele>
        <time>2020-08-31T12:54:35Z</time>
      </trkpt>
      <trkpt lat="46.65447" lon="6.06237">
        <ele>869</ele>
        <time>2020-08-31T12:54:40Z</time>
      </trkpt>
      <trkpt lat="46.65441" lon="6.06241">
        <ele>868</ele>
        <time>2020-08-31T12:54:45Z</time>
      </trkpt>
      <trkpt lat="46.65438" lon="6.06248">
        <ele>868</ele>
        <time>2020-08-31T12:54:50Z</time>
      </trkpt>
      <trkpt lat="46.65432" lon="6.06259">
        <ele>867</ele>
        <time>2020-08-31T12:54:57Z</time>
      </trkpt>
      <trkpt lat="46.6543" lon="6.06264">
        <ele>867</ele>
        <time>2020-08-31T12:55:00Z</time>
      </trkpt>
      <trkpt lat="46.6542" lon="6.06275">
        <ele>866</ele>
        <time>2020-08-31T12:55:11Z</time>
      </trkpt>
      <trkpt lat="46.65416" lon="6.06281">
        <ele>866</ele>
        <time>2020-08-31T12:55:17Z</time>
      </trkpt>
      <trkpt lat="46.65415" lon="6.06287">
        <ele>867</ele>
        <time>2020-08-31T12:55:21Z</time>
      </trkpt>
      <trkpt lat="46.65409" lon="6.06294">
        <ele>866</ele>
        <time>2020-08-31T12:55:28Z</time>
      </trkpt>
      <trkpt lat="46.654" lon="6.06295">
        <ele>865</ele>
        <time>2020-08-31T12:55:36Z</time>
      </trkpt>
      <trkpt lat="46.6539" lon="6.06283">
        <ele>864</ele>
        <time>2020-08-31T12:55:47Z</time>
      </trkpt>
      <trkpt lat="46.65386" lon="6.06282">
        <ele>864</ele>
        <time>2020-08-31T12:55:50Z</time>
      </trkpt>
      <trkpt lat="46.65382" lon="6.06278">
        <ele>864</ele>
        <time>2020-08-31T12:55:54Z</time>
      </trkpt>
      <trkpt lat="46.65379" lon="6.06274">
        <ele>864</ele>
        <time>2020-08-31T12:55:57Z</time>
      </trkpt>
      <trkpt lat="46.65376" lon="6.0627">
        <ele>864</ele>
        <time>2020-08-31T12:56:01Z</time>
      </trkpt>
      <trkpt lat="46.65371" lon="6.06266">
        <ele>863</ele>
        <time>2020-08-31T12:56:07Z</time>
      </trkpt>
      <trkpt lat="46.65365" lon="6.0626">
        <ele>863</ele>
        <time>2020-08-31T12:56:14Z</time>
      </trkpt>
      <trkpt lat="46.65362" lon="6.06256">
        <ele>863</ele>
        <time>2020-08-31T12:56:22Z</time>
      </trkpt>
      <trkpt lat="46.65359" lon="6.06261">
        <ele>862</ele>
        <time>2020-08-31T12:56:27Z</time>
      </trkpt>
      <trkpt lat="46.65356" lon="6.06266">
        <ele>862</ele>
        <time>2020-08-31T12:56:31Z</time>
      </trkpt>
      <trkpt lat="46.65352" lon="6.06273">
        <ele>862</ele>
        <time>2020-08-31T12:56:37Z</time>
      </trkpt>
      <trkpt lat="46.65348" lon="6.06274">
        <ele>862</ele>
        <time>2020-08-31T12:56:41Z</time>
      </trkpt>
      <trkpt lat="46.65341" lon="6.06285">
        <ele>862</ele>
        <time>2020-08-31T12:56:50Z</time>
      </trkpt>
      <trkpt lat="46.65339" lon="6.06291">
        <ele>862</ele>
        <time>2020-08-31T12:56:53Z</time>
      </trkpt>
      <trkpt lat="46.65332" lon="6.0631">
        <ele>863</ele>
        <time>2020-08-31T12:57:09Z</time>
      </trkpt>
      <trkpt lat="46.65329" lon="6.06317">
        <ele>863</ele>
        <time>2020-08-31T12:57:15Z</time>
      </trkpt>
      <trkpt lat="46.65328" lon="6.06323">
        <ele>862</ele>
        <time>2020-08-31T12:57:18Z</time>
      </trkpt>
      <trkpt lat="46.65327" lon="6.0633">
        <ele>862</ele>
        <time>2020-08-31T12:57:22Z</time>
      </trkpt>
      <trkpt lat="46.65328" lon="6.06336">
        <ele>861</ele>
        <time>2020-08-31T12:57:26Z</time>
      </trkpt>
      <trkpt lat="46.6534" lon="6.06364">
        <ele>859</ele>
        <time>2020-08-31T12:57:46Z</time>
      </trkpt>
      <trkpt lat="46.65344" lon="6.0637">
        <ele>858</ele>
        <time>2020-08-31T12:57:50Z</time>
      </trkpt>
      <trkpt lat="46.65356" lon="6.0641">
        <ele>856</ele>
        <time>2020-08-31T12:58:15Z</time>
      </trkpt>
      <trkpt lat="46.65361" lon="6.06442">
        <ele>856</ele>
        <time>2020-08-31T12:58:35Z</time>
      </trkpt>
      <trkpt lat="46.65361" lon="6.06447">
        <ele>856</ele>
        <time>2020-08-31T12:58:56Z</time>
      </trkpt>
      <trkpt lat="46.65358" lon="6.06466">
        <ele>856</ele>
        <time>2020-08-31T12:59:28Z</time>
      </trkpt>
      <trkpt lat="46.65361" lon="6.065">
        <ele>856</ele>
        <time>2020-08-31T12:59:49Z</time>
      </trkpt>
      <trkpt lat="46.65365" lon="6.06512">
        <ele>856</ele>
        <time>2020-08-31T12:59:58Z</time>
      </trkpt>
      <trkpt lat="46.65371" lon="6.06526">
        <ele>856</ele>
        <time>2020-08-31T13:00:13Z</time>
      </trkpt>
      <trkpt lat="46.65381" lon="6.0656">
        <ele>856</ele>
        <time>2020-08-31T13:00:31Z</time>
      </trkpt>
      <trkpt lat="46.65381" lon="6.06568">
        <ele>856</ele>
        <time>2020-08-31T13:00:36Z</time>
      </trkpt>
      <trkpt lat="46.65384" lon="6.06576">
        <ele>856</ele>
        <time>2020-08-31T13:00:40Z</time>
      </trkpt>
      <trkpt lat="46.65385" lon="6.06588">
        <ele>857</ele>
        <time>2020-08-31T13:00:47Z</time>
      </trkpt>
      <trkpt lat="46.6539" lon="6.06601">
        <ele>857</ele>
        <time>2020-08-31T13:00:56Z</time>
      </trkpt>
      <trkpt lat="46.65402" lon="6.06625">
        <ele>856</ele>
        <time>2020-08-31T13:01:15Z</time>
      </trkpt>
      <trkpt lat="46.65417" lon="6.06662">
        <ele>856</ele>
        <time>2020-08-31T13:01:49Z</time>
      </trkpt>
      <trkpt lat="46.6542" lon="6.06668">
        <ele>856</ele>
        <time>2020-08-31T13:01:53Z</time>
      </trkpt>
      <trkpt lat="46.65439" lon="6.06689">
        <ele>856</ele>
        <time>2020-08-31T13:02:11Z</time>
      </trkpt>
      <trkpt lat="46.65449" lon="6.06696">
        <ele>856</ele>
        <time>2020-08-31T13:02:20Z</time>
      </trkpt>
      <trkpt lat="46.65458" lon="6.0671">
        <ele>857</ele>
        <time>2020-08-31T13:02:33Z</time>
      </trkpt>
      <trkpt lat="46.65483" lon="6.06741">
        <ele>857</ele>
        <time>2020-08-31T13:03:02Z</time>
      </trkpt>
      <trkpt lat="46.6549" lon="6.06756">
        <ele>857</ele>
        <time>2020-08-31T13:03:12Z</time>
      </trkpt>
      <trkpt lat="46.65493" lon="6.06765">
        <ele>857</ele>
        <time>2020-08-31T13:03:20Z</time>
      </trkpt>
      <trkpt lat="46.65495" lon="6.06772">
        <ele>857</ele>
        <time>2020-08-31T13:03:28Z</time>
      </trkpt>
      <trkpt lat="46.65497" lon="6.06781">
        <ele>857</ele>
        <time>2020-08-31T13:03:34Z</time>
      </trkpt>
      <trkpt lat="46.65502" lon="6.06791">
        <ele>857</ele>
        <time>2020-08-31T13:03:41Z</time>
      </trkpt>
      <trkpt lat="46.65504" lon="6.06797">
        <ele>857</ele>
        <time>2020-08-31T13:03:45Z</time>
      </trkpt>
      <trkpt lat="46.65507" lon="6.06804">
        <ele>857</ele>
        <time>2020-08-31T13:03:52Z</time>
      </trkpt>
      <trkpt lat="46.65508" lon="6.06814">
        <ele>857</ele>
        <time>2020-08-31T13:03:58Z</time>
      </trkpt>
      <trkpt lat="46.65517" lon="6.06839">
        <ele>857</ele>
        <time>2020-08-31T13:04:12Z</time>
      </trkpt>
      <trkpt lat="46.65522" lon="6.06845">
        <ele>857</ele>
        <time>2020-08-31T13:04:18Z</time>
      </trkpt>
      <trkpt lat="46.6553" lon="6.06858">
        <ele>857</ele>
        <time>2020-08-31T13:04:28Z</time>
      </trkpt>
      <trkpt lat="46.65534" lon="6.06862">
        <ele>858</ele>
        <time>2020-08-31T13:04:33Z</time>
      </trkpt>
      <trkpt lat="46.65545" lon="6.06869">
        <ele>858</ele>
        <time>2020-08-31T13:04:42Z</time>
      </trkpt>
      <trkpt lat="46.65549" lon="6.06872">
        <ele>857</ele>
        <time>2020-08-31T13:04:50Z</time>
      </trkpt>
      <trkpt lat="46.65552" lon="6.06878">
        <ele>857</ele>
        <time>2020-08-31T13:04:55Z</time>
      </trkpt>
      <trkpt lat="46.65558" lon="6.06883">
        <ele>857</ele>
        <time>2020-08-31T13:05:03Z</time>
      </trkpt>
      <trkpt lat="46.65561" lon="6.0689">
        <ele>857</ele>
        <time>2020-08-31T13:05:08Z</time>
      </trkpt>
      <trkpt lat="46.65566" lon="6.06895">
        <ele>857</ele>
        <time>2020-08-31T13:05:12Z</time>
      </trkpt>
      <trkpt lat="46.65572" lon="6.06919">
        <ele>857</ele>
        <time>2020-08-31T13:05:32Z</time>
      </trkpt>
      <trkpt lat="46.65574" lon="6.06937">
        <ele>857</ele>
        <time>2020-08-31T13:05:50Z</time>
      </trkpt>
      <trkpt lat="46.65573" lon="6.06947">
        <ele>858</ele>
        <time>2020-08-31T13:05:55Z</time>
      </trkpt>
      <trkpt lat="46.65566" lon="6.06967">
        <ele>858</ele>
        <time>2020-08-31T13:06:15Z</time>
      </trkpt>
      <trkpt lat="46.65565" lon="6.06994">
        <ele>858</ele>
        <time>2020-08-31T13:06:30Z</time>
      </trkpt>
      <trkpt lat="46.65571" lon="6.07014">
        <ele>858</ele>
        <time>2020-08-31T13:06:49Z</time>
      </trkpt>
      <trkpt lat="46.65572" lon="6.07022">
        <ele>858</ele>
        <time>2020-08-31T13:06:54Z</time>
      </trkpt>
      <trkpt lat="46.65579" lon="6.07035">
        <ele>858</ele>
        <time>2020-08-31T13:07:04Z</time>
      </trkpt>
      <trkpt lat="46.65584" lon="6.0704">
        <ele>858</ele>
        <time>2020-08-31T13:07:09Z</time>
      </trkpt>
      <trkpt lat="46.65588" lon="6.07046">
        <ele>858</ele>
        <time>2020-08-31T13:07:13Z</time>
      </trkpt>
      <trkpt lat="46.65609" lon="6.07066">
        <ele>859</ele>
        <time>2020-08-31T13:07:39Z</time>
      </trkpt>
      <trkpt lat="46.65612" lon="6.07072">
        <ele>859</ele>
        <time>2020-08-31T13:07:52Z</time>
      </trkpt>
      <trkpt lat="46.6565" lon="6.07097">
        <ele>859</ele>
        <time>2020-08-31T13:08:27Z</time>
      </trkpt>
      <trkpt lat="46.65655" lon="6.07101">
        <ele>859</ele>
        <time>2020-08-31T13:08:32Z</time>
      </trkpt>
      <trkpt lat="46.65661" lon="6.07101">
        <ele>859</ele>
        <time>2020-08-31T13:08:36Z</time>
      </trkpt>
      <trkpt lat="46.65671" lon="6.07113">
        <ele>859</ele>
        <time>2020-08-31T13:08:48Z</time>
      </trkpt>
      <trkpt lat="46.6568" lon="6.07119">
        <ele>859</ele>
        <time>2020-08-31T13:08:56Z</time>
      </trkpt>
      <trkpt lat="46.65683" lon="6.07123">
        <ele>859</ele>
        <time>2020-08-31T13:09:00Z</time>
      </trkpt>
      <trkpt lat="46.65688" lon="6.07123">
        <ele>859</ele>
        <time>2020-08-31T13:09:03Z</time>
      </trkpt>
      <trkpt lat="46.657" lon="6.07127">
        <ele>860</ele>
        <time>2020-08-31T13:09:13Z</time>
      </trkpt>
      <trkpt lat="46.6571" lon="6.07133">
        <ele>860</ele>
        <time>2020-08-31T13:09:23Z</time>
      </trkpt>
      <trkpt lat="46.65718" lon="6.07133">
        <ele>860</ele>
        <time>2020-08-31T13:09:30Z</time>
      </trkpt>
      <trkpt lat="46.65727" lon="6.07143">
        <ele>860</ele>
        <time>2020-08-31T13:09:40Z</time>
      </trkpt>
      <trkpt lat="46.65736" lon="6.07145">
        <ele>860</ele>
        <time>2020-08-31T13:09:47Z</time>
      </trkpt>
      <trkpt lat="46.65739" lon="6.0715">
        <ele>860</ele>
        <time>2020-08-31T13:09:50Z</time>
      </trkpt>
      <trkpt lat="46.65746" lon="6.07156">
        <ele>860</ele>
        <time>2020-08-31T13:09:59Z</time>
      </trkpt>
      <trkpt lat="46.6577" lon="6.07168">
        <ele>861</ele>
        <time>2020-08-31T13:10:22Z</time>
      </trkpt>
      <trkpt lat="46.65775" lon="6.07173">
        <ele>861</ele>
        <time>2020-08-31T13:10:28Z</time>
      </trkpt>
      <trkpt lat="46.6578" lon="6.07187">
        <ele>861</ele>
        <time>2020-08-31T13:10:37Z</time>
      </trkpt>
      <trkpt lat="46.65787" lon="6.07199">
        <ele>861</ele>
        <time>2020-08-31T13:10:45Z</time>
      </trkpt>
      <trkpt lat="46.65792" lon="6.07202">
        <ele>861</ele>
        <time>2020-08-31T13:10:54Z</time>
      </trkpt>
      <trkpt lat="46.65793" lon="6.07212">
        <ele>861</ele>
        <time>2020-08-31T13:11:04Z</time>
      </trkpt>
      <trkpt lat="46.65801" lon="6.07234">
        <ele>861</ele>
        <time>2020-08-31T13:11:20Z</time>
      </trkpt>
      <trkpt lat="46.65806" lon="6.07244">
        <ele>861</ele>
        <time>2020-08-31T13:11:28Z</time>
      </trkpt>
      <trkpt lat="46.65811" lon="6.07263">
        <ele>861</ele>
        <time>2020-08-31T13:11:41Z</time>
      </trkpt>
      <trkpt lat="46.65818" lon="6.07273">
        <ele>861</ele>
        <time>2020-08-31T13:11:53Z</time>
      </trkpt>
      <trkpt lat="46.65823" lon="6.07299">
        <ele>862</ele>
        <time>2020-08-31T13:12:07Z</time>
      </trkpt>
      <trkpt lat="46.65826" lon="6.07315">
        <ele>862</ele>
        <time>2020-08-31T13:12:16Z</time>
      </trkpt>
      <trkpt lat="46.65831" lon="6.07323">
        <ele>862</ele>
        <time>2020-08-31T13:12:24Z</time>
      </trkpt>
      <trkpt lat="46.65831" lon="6.07332">
        <ele>862</ele>
        <time>2020-08-31T13:12:30Z</time>
      </trkpt>
      <trkpt lat="46.6584" lon="6.07355">
        <ele>862</ele>
        <time>2020-08-31T13:12:46Z</time>
      </trkpt>
      <trkpt lat="46.6584" lon="6.07365">
        <ele>862</ele>
        <time>2020-08-31T13:12:52Z</time>
      </trkpt>
      <trkpt lat="46.65837" lon="6.07374">
        <ele>862</ele>
        <time>2020-08-31T13:12:57Z</time>
      </trkpt>
      <trkpt lat="46.65835" lon="6.07381">
        <ele>862</ele>
        <time>2020-08-31T13:13:11Z</time>
      </trkpt>
      <trkpt lat="46.6584" lon="6.07385">
        <ele>862</ele>
        <time>2020-08-31T13:13:16Z</time>
      </trkpt>
      <trkpt lat="46.65853" lon="6.07405">
        <ele>862</ele>
        <time>2020-08-31T13:13:33Z</time>
      </trkpt>
      <trkpt lat="46.65855" lon="6.07413">
        <ele>862</ele>
        <time>2020-08-31T13:13:38Z</time>
      </trkpt>
      <trkpt lat="46.65859" lon="6.07407">
        <ele>862</ele>
        <time>2020-08-31T13:13:45Z</time>
      </trkpt>
      <trkpt lat="46.65861" lon="6.07397">
        <ele>862</ele>
        <time>2020-08-31T13:13:55Z</time>
      </trkpt>
      <trkpt lat="46.6587" lon="6.07394">
        <ele>861</ele>
        <time>2020-08-31T13:14:32Z</time>
      </trkpt>
      <trkpt lat="46.65893" lon="6.07377">
        <ele>861</ele>
        <time>2020-08-31T13:14:56Z</time>
      </trkpt>
      <trkpt lat="46.65899" lon="6.07375">
        <ele>861</ele>
        <time>2020-08-31T13:15:01Z</time>
      </trkpt>
      <trkpt lat="46.65902" lon="6.07362">
        <ele>861</ele>
        <time>2020-08-31T13:15:08Z</time>
      </trkpt>
      <trkpt lat="46.65903" lon="6.07356">
        <ele>861</ele>
        <time>2020-08-31T13:15:12Z</time>
      </trkpt>
      <trkpt lat="46.65906" lon="6.07349">
        <ele>861</ele>
        <time>2020-08-31T13:15:19Z</time>
      </trkpt>
      <trkpt lat="46.65908" lon="6.07343">
        <ele>862</ele>
        <time>2020-08-31T13:15:23Z</time>
      </trkpt>
      <trkpt lat="46.6591" lon="6.07318">
        <ele>862</ele>
        <time>2020-08-31T13:15:35Z</time>
      </trkpt>
      <trkpt lat="46.65905" lon="6.07309">
        <ele>862</ele>
        <time>2020-08-31T13:15:42Z</time>
      </trkpt>
      <trkpt lat="46.65901" lon="6.07305">
        <ele>862</ele>
        <time>2020-08-31T13:15:50Z</time>
      </trkpt>
      <trkpt lat="46.65892" lon="6.07301">
        <ele>862</ele>
        <time>2020-08-31T13:15:59Z</time>
      </trkpt>
      <trkpt lat="46.65889" lon="6.07298">
        <ele>862</ele>
        <time>2020-08-31T13:16:03Z</time>
      </trkpt>
      <trkpt lat="46.65885" lon="6.07295">
        <ele>862</ele>
        <time>2020-08-31T13:16:23Z</time>
      </trkpt>
      <trkpt lat="46.6588" lon="6.0729">
        <ele>862</ele>
        <time>2020-08-31T13:16:35Z</time>
      </trkpt>
    </trkseg>
  </trk>
</gpx>